Wetterdaten: Donnerstag, 31.03.2022
Datum Zeit Temp. Aussen Temp. o. S. Temp +5cm Feuchte Auss Luftdruck Regen Sonnenschein Regendauer Solar Windben Empfang
31.03.2022 00:00 7,3 C 6,7 C 3,3 C 79 % 1001,9 hPa 0,0 l/m 0 min 0 min 0 W/m 6,4 km/h (2 Bft) 95,74 %
31.03.2022 00:02 7,2 C 6,7 C 3,3 C 79 % 1001,9 hPa 0,0 l/m 0 min 0 min 0 W/m 9,7 km/h (2 Bft) 95,65 %
31.03.2022 00:04 7,2 C 6,7 C 3,3 C 79 % 1001,9 hPa 0,0 l/m 0 min 0 min 0 W/m 9,7 km/h (2 Bft) 97,87 %
31.03.2022 00:08 7,2 C 6,7 C 3,3 C 79 % 1001,9 hPa 0,0 l/m 0 min 0 min 0 W/m 9,7 km/h (2 Bft) 97,87 %
31.03.2022 00:10 7,2 C 6,7 C 3,3 C 79 % 1001,9 hPa 0,0 l/m 0 min 0 min 0 W/m 6,4 km/h (2 Bft) 97,22 %
31.03.2022 00:12 7,2 C 6,7 C 3,3 C 79 % 1001,8 hPa 0,0 l/m 0 min 0 min 0 W/m 3,2 km/h (1 Bft) 93,48 %
31.03.2022 00:14 7,2 C 6,7 C 3,3 C 79 % 1001,9 hPa 0,0 l/m 0 min 0 min 0 W/m 9,7 km/h (2 Bft) 94,55 %
31.03.2022 00:16 7,2 C 6,7 C 3,3 C 79 % 1001,9 hPa 0,0 l/m 0 min 0 min 0 W/m 3,2 km/h (1 Bft) 98,00 %
31.03.2022 00:18 7,2 C 6,7 C 3,3 C 79 % 1001,9 hPa 0,0 l/m 0 min 0 min 0 W/m 6,4 km/h (2 Bft) 97,22 %
31.03.2022 00:20 7,2 C 6,7 C 3,3 C 79 % 1001,8 hPa 0,0 l/m 0 min 0 min 0 W/m 6,4 km/h (2 Bft) 97,87 %
31.03.2022 00:22 7,2 C 6,7 C 3,3 C 79 % 1001,8 hPa 0,0 l/m 0 min 0 min 0 W/m 16,1 km/h (3 Bft) 94,55 %
31.03.2022 00:24 7,1 C 6,7 C 2,8 C 79 % 1001,8 hPa 0,0 l/m 0 min 0 min 0 W/m 9,7 km/h (2 Bft) 93,88 %
31.03.2022 00:26 7,1 C 6,7 C 3,3 C 79 % 1001,8 hPa 0,0 l/m 0 min 0 min 0 W/m 9,7 km/h (2 Bft) 94,44 %
31.03.2022 00:28 7,1 C 6,7 C 2,8 C 79 % 1001,8 hPa 0,0 l/m 0 min 0 min 0 W/m 9,7 km/h (2 Bft) 95,74 %
31.03.2022 00:30 7,1 C 6,7 C 2,8 C 79 % 1001,8 hPa 0,0 l/m 0 min 0 min 0 W/m 6,4 km/h (2 Bft) 94,55 %
31.03.2022 00:32 7,1 C 6,7 C 2,8 C 79 % 1001,8 hPa 0,0 l/m 0 min 0 min 0 W/m 6,4 km/h (2 Bft) 96,00 %
31.03.2022 00:34 7,1 C 6,7 C 2,8 C 79 % 1001,8 hPa 0,0 l/m 0 min 0 min 0 W/m 9,7 km/h (2 Bft) 94,44 %
31.03.2022 00:36 7,1 C 6,7 C 2,8 C 79 % 1001,8 hPa 0,0 l/m 0 min 0 min 0 W/m 6,4 km/h (2 Bft) 80,00 %
31.03.2022 00:38 7,1 C 6,7 C 2,8 C 79 % 1001,8 hPa 0,0 l/m 0 min 0 min 0 W/m 9,7 km/h (2 Bft) 97,87 %
31.03.2022 00:40 7,1 C 6,7 C 2,8 C 79 % 1001,8 hPa 0,0 l/m 0 min 0 min 0 W/m 6,4 km/h (2 Bft) 98,18 %
31.03.2022 00:42 7,1 C 6,7 C 2,8 C 79 % 1001,7 hPa 0,0 l/m 0 min 0 min 0 W/m 6,4 km/h (2 Bft) 96,00 %
31.03.2022 00:44 7,1 C 6,7 C 2,8 C 79 % 1001,7 hPa 0,0 l/m 0 min 0 min 0 W/m 6,4 km/h (2 Bft) 100,00 %
31.03.2022 00:46 7,1 C 6,7 C 2,8 C 79 % 1001,7 hPa 0,0 l/m 0 min 0 min 0 W/m 3,2 km/h (1 Bft) 97,83 %
31.03.2022 00:48 7,1 C 6,7 C 2,8 C 79 % 1001,7 hPa 0,0 l/m 0 min 0 min 0 W/m 12,9 km/h (3 Bft) 98,18 %
31.03.2022 00:50 7,1 C 6,7 C 2,8 C 79 % 1001,7 hPa 0,0 l/m 0 min 0 min 0 W/m 12,9 km/h (3 Bft) 98,00 %
31.03.2022 00:52 7,1 C 6,1 C 2,8 C 79 % 1001,7 hPa 0,0 l/m 0 min 0 min 0 W/m 6,4 km/h (2 Bft) 100,00 %
31.03.2022 00:54 7,0 C 6,1 C 2,8 C 79 % 1001,8 hPa 0,0 l/m 0 min 0 min 0 W/m 6,4 km/h (2 Bft) 100,00 %
31.03.2022 00:56 7,0 C 6,1 C 2,8 C 79 % 1001,7 hPa 0,0 l/m 0 min 0 min 0 W/m 3,2 km/h (1 Bft) 100,00 %
31.03.2022 00:58 7,0 C 6,7 C 2,8 C 80 % 1001,7 hPa 0,0 l/m 0 min 0 min 0 W/m 6,4 km/h (2 Bft) 100,00 %
31.03.2022 01:00 7,0 C 6,7 C 2,8 C 80 % 1001,7 hPa 0,0 l/m 0 min 0 min 0 W/m 9,7 km/h (2 Bft) 98,00 %
31.03.2022 01:02 7,0 C 6,1 C 2,8 C 80 % 1001,7 hPa 0,0 l/m 0 min 0 min 0 W/m 6,4 km/h (2 Bft) 97,22 %
31.03.2022 01:04 6,9 C 6,1 C 2,8 C 80 % 1001,6 hPa 0,0 l/m 0 min 0 min 0 W/m 6,4 km/h (2 Bft) 100,00 %
31.03.2022 01:06 6,9 C 6,1 C 2,8 C 80 % 1001,6 hPa 0,0 l/m 0 min 0 min 0 W/m 6,4 km/h (2 Bft) 100,00 %
31.03.2022 01:08 6,9 C 6,1 C 2,8 C 80 % 1001,7 hPa 0,0 l/m 0 min 0 min 0 W/m 9,7 km/h (2 Bft) 98,18 %
31.03.2022 01:10 6,9 C 6,1 C 2,8 C 80 % 1001,6 hPa 0,0 l/m 0 min 0 min 0 W/m 3,2 km/h (1 Bft) 50,00 %
31.03.2022 01:12 6,9 C 6,1 C 2,8 C 80 % 1001,5 hPa 0,0 l/m 0 min 0 min 0 W/m 9,7 km/h (2 Bft) 97,22 %
31.03.2022 01:14 6,9 C 6,1 C 2,8 C 80 % 1001,5 hPa 0,0 l/m 0 min 0 min 0 W/m 6,4 km/h (2 Bft) 100,00 %
31.03.2022 01:16 6,9 C 6,1 C 2,8 C 80 % 1001,5 hPa 0,0 l/m 0 min 0 min 0 W/m 6,4 km/h (2 Bft) 100,00 %
31.03.2022 01:18 6,9 C 6,1 C 2,8 C 80 % 1001,5 hPa 0,0 l/m 0 min 0 min 0 W/m 9,7 km/h (2 Bft) 100,00 %
31.03.2022 01:20 6,9 C 6,1 C 2,8 C 80 % 1001,4 hPa 0,0 l/m 0 min 0 min 0 W/m 6,4 km/h (2 Bft) 100,00 %
31.03.2022 01:22 6,8 C 6,1 C 2,8 C 80 % 1001,4 hPa 0,0 l/m 0 min 0 min 0 W/m 6,4 km/h (2 Bft) 100,00 %
31.03.2022 01:24 6,8 C 6,1 C 2,8 C 80 % 1001,4 hPa 0,0 l/m 0 min 0 min 0 W/m 9,7 km/h (2 Bft) 100,00 %
31.03.2022 01:26 6,8 C 6,1 C 2,8 C 80 % 1001,4 hPa 0,0 l/m 0 min 0 min 0 W/m 9,7 km/h (2 Bft) 100,00 %
31.03.2022 01:28 6,8 C 6,1 C 2,8 C 80 % 1001,4 hPa 0,0 l/m 0 min 0 min 0 W/m 6,4 km/h (2 Bft) 97,87 %
31.03.2022 01:30 6,8 C 6,1 C 2,8 C 80 % 1001,4 hPa 0,0 l/m 0 min 0 min 0 W/m 6,4 km/h (2 Bft) 100,00 %
31.03.2022 01:32 6,8 C 6,1 C 2,8 C 80 % 1001,4 hPa 0,0 l/m 0 min 0 min 0 W/m 9,7 km/h (2 Bft) 100,00 %
31.03.2022 01:34 6,7 C 6,1 C 2,8 C 80 % 1001,4 hPa 0,0 l/m 0 min 0 min 0 W/m 12,9 km/h (3 Bft) 100,00 %
31.03.2022 01:36 6,7 C 6,1 C 2,8 C 80 % 1001,4 hPa 0,0 l/m 0 min 0 min 0 W/m 6,4 km/h (2 Bft) 98,00 %
31.03.2022 01:38 6,7 C 6,1 C 2,8 C 80 % 1001,4 hPa 0,0 l/m 0 min 0 min 0 W/m 12,9 km/h (3 Bft) 97,87 %
31.03.2022 01:40 6,7 C 6,1 C 2,8 C 80 % 1001,3 hPa 0,0 l/m 0 min 0 min 0 W/m 9,7 km/h (2 Bft) 95,74 %
31.03.2022 01:42 6,7 C 6,1 C 2,8 C 80 % 1001,3 hPa 0,0 l/m 0 min 0 min 0 W/m 9,7 km/h (2 Bft) 97,87 %
31.03.2022 01:44 6,7 C 6,1 C 2,8 C 80 % 1001,3 hPa 0,0 l/m 0 min 0 min 0 W/m 9,7 km/h (2 Bft) 97,22 %
31.03.2022 01:46 6,7 C 6,1 C 2,8 C 80 % 1001,3 hPa 0,0 l/m 0 min 0 min 0 W/m 9,7 km/h (2 Bft) 97,87 %
31.03.2022 01:48 6,7 C 6,1 C 2,8 C 80 % 1001,3 hPa 0,0 l/m 0 min 0 min 0 W/m 6,4 km/h (2 Bft) 97,87 %
31.03.2022 01:50 6,7 C 6,1 C 2,8 C 80 % 1001,3 hPa 0,0 l/m 0 min 0 min 0 W/m 9,7 km/h (2 Bft) 97,87 %
31.03.2022 01:52 6,7 C 6,1 C 2,8 C 80 % 1001,3 hPa 0,0 l/m 0 min 0 min 0 W/m 6,4 km/h (2 Bft) 97,87 %
31.03.2022 01:54 6,7 C 6,1 C 2,8 C 80 % 1001,3 hPa 0,0 l/m 0 min 0 min 0 W/m 6,4 km/h (2 Bft) 97,87 %
31.03.2022 01:56 6,6 C 6,1 C 2,8 C 80 % 1001,2 hPa 0,0 l/m 0 min 0 min 0 W/m 9,7 km/h (2 Bft) 95,65 %
31.03.2022 01:58 6,6 C 6,1 C 2,8 C 80 % 1001,2 hPa 0,0 l/m 0 min 0 min 0 W/m 9,7 km/h (2 Bft) 97,87 %
31.03.2022 02:00 6,6 C 6,1 C 2,8 C 80 % 1001,2 hPa 0,0 l/m 0 min 0 min 0 W/m 6,4 km/h (2 Bft) 97,87 %
31.03.2022 02:02 6,6 C 6,1 C 2,8 C 80 % 1001,2 hPa 0,0 l/m 0 min 0 min 0 W/m 12,9 km/h (3 Bft) 93,62 %
31.03.2022 02:04 6,6 C 6,1 C 2,8 C 80 % 1001,2 hPa 0,0 l/m 0 min 0 min 0 W/m 16,1 km/h (3 Bft) 97,87 %
31.03.2022 02:06 6,6 C 6,1 C 2,2 C 80 % 1001,1 hPa 0,0 l/m 0 min 0 min 0 W/m 9,7 km/h (2 Bft) 93,62 %
31.03.2022 02:08 6,6 C 6,1 C 2,8 C 80 % 1001,1 hPa 0,0 l/m 0 min 0 min 0 W/m 9,7 km/h (2 Bft) 95,65 %
31.03.2022 02:10 6,6 C 6,1 C 2,2 C 80 % 1001,1 hPa 0,0 l/m 0 min 0 min 0 W/m 9,7 km/h (2 Bft) 95,74 %
31.03.2022 02:12 6,6 C 6,1 C 2,2 C 80 % 1001,1 hPa 0,0 l/m 0 min 0 min 0 W/m 9,7 km/h (2 Bft) 93,62 %
31.03.2022 02:14 6,6 C 6,1 C 2,8 C 80 % 1001,1 hPa 0,0 l/m 0 min 0 min 0 W/m 12,9 km/h (3 Bft) 95,74 %
31.03.2022 02:16 6,6 C 6,1 C 2,8 C 80 % 1001,0 hPa 0,0 l/m 0 min 0 min 0 W/m 6,4 km/h (2 Bft) 95,74 %
31.03.2022 02:18 6,6 C 6,1 C 2,2 C 80 % 1001,0 hPa 0,0 l/m 0 min 0 min 0 W/m 9,7 km/h (2 Bft) 97,87 %
31.03.2022 02:20 6,5 C 6,1 C 2,2 C 80 % 1001,0 hPa 0,0 l/m 0 min 0 min 0 W/m 6,4 km/h (2 Bft) 97,83 %
31.03.2022 02:22 6,5 C 6,1 C 2,2 C 80 % 1001,0 hPa 0,0 l/m 0 min 0 min 0 W/m 9,7 km/h (2 Bft) 97,87 %
31.03.2022 02:24 6,5 C 6,1 C 2,2 C 80 % 1001,0 hPa 0,0 l/m 0 min 0 min 0 W/m 6,4 km/h (2 Bft) 97,87 %
31.03.2022 02:26 6,5 C 6,1 C 2,8 C 80 % 1001,0 hPa 0,0 l/m 0 min 0 min 0 W/m 6,4 km/h (2 Bft) 97,87 %
31.03.2022 02:28 6,5 C 6,1 C 2,2 C 80 % 1001,0 hPa 0,0 l/m 0 min 0 min 0 W/m 6,4 km/h (2 Bft) 97,87 %
31.03.2022 02:30 6,5 C 6,1 C 2,8 C 80 % 1000,9 hPa 0,0 l/m 0 min 0 min 0 W/m 6,4 km/h (2 Bft) 97,83 %
31.03.2022 02:32 6,5 C 6,1 C 2,2 C 80 % 1000,9 hPa 0,0 l/m 0 min 0 min 0 W/m 6,4 km/h (2 Bft) 97,87 %
31.03.2022 02:34 6,5 C 6,1 C 2,2 C 80 % 1000,9 hPa 0,0 l/m 0 min 0 min 0 W/m 6,4 km/h (2 Bft) 100,00 %
31.03.2022 02:36 6,5 C 6,1 C 2,2 C 80 % 1000,9 hPa 0,0 l/m 0 min 0 min 0 W/m 6,4 km/h (2 Bft) 97,87 %
31.03.2022 02:38 6,5 C 6,1 C 2,2 C 80 % 1000,9 hPa 0,0 l/m 0 min 0 min 0 W/m 6,4 km/h (2 Bft) 100,00 %
31.03.2022 02:40 6,5 C 6,1 C 2,2 C 80 % 1000,8 hPa 0,0 l/m 0 min 0 min 0 W/m 6,4 km/h (2 Bft) 100,00 %
31.03.2022 02:42 6,5 C 6,1 C 2,2 C 80 % 1000,8 hPa 0,0 l/m 0 min 0 min 0 W/m 9,7 km/h (2 Bft) 100,00 %
31.03.2022 02:44 6,5 C 6,1 C 2,2 C 80 % 1000,8 hPa 0,0 l/m 0 min 0 min 0 W/m 12,9 km/h (3 Bft) 100,00 %
31.03.2022 02:46 6,4 C 5,6 C 2,2 C 80 % 1000,8 hPa 0,0 l/m 0 min 0 min 0 W/m 6,4 km/h (2 Bft) 97,87 %
31.03.2022 02:48 6,4 C 5,6 C 2,2 C 80 % 1000,8 hPa 0,0 l/m 0 min 0 min 0 W/m 6,4 km/h (2 Bft) 100,00 %
31.03.2022 02:50 6,4 C 6,1 C 2,2 C 80 % 1000,8 hPa 0,0 l/m 0 min 0 min 0 W/m 9,7 km/h (2 Bft) 100,00 %
31.03.2022 02:52 6,4 C 6,1 C 2,2 C 80 % 1000,8 hPa 0,0 l/m 0 min 0 min 0 W/m 6,4 km/h (2 Bft) 100,00 %
31.03.2022 02:54 6,4 C 6,1 C 2,2 C 81 % 1000,8 hPa 0,0 l/m 0 min 0 min 0 W/m 6,4 km/h (2 Bft) 100,00 %
31.03.2022 02:56 6,4 C 6,1 C 2,2 C 81 % 1000,7 hPa 0,0 l/m 0 min 0 min 0 W/m 12,9 km/h (3 Bft) 100,00 %
31.03.2022 02:58 6,4 C 5,6 C 2,2 C 81 % 1000,7 hPa 0,0 l/m 0 min 0 min 0 W/m 6,4 km/h (2 Bft) 98,04 %
31.03.2022 03:00 6,4 C 5,6 C 2,2 C 81 % 1000,7 hPa 0,0 l/m 0 min 0 min 0 W/m 9,7 km/h (2 Bft) 100,00 %
31.03.2022 03:02 6,4 C 5,6 C 2,2 C 81 % 1000,7 hPa 0,0 l/m 0 min 0 min 0 W/m 6,4 km/h (2 Bft) 97,73 %
31.03.2022 03:04 6,4 C 5,6 C 2,2 C 81 % 1000,7 hPa 0,0 l/m 0 min 0 min 0 W/m 6,4 km/h (2 Bft) 100,00 %
31.03.2022 03:06 6,4 C 5,6 C 2,2 C 81 % 1000,7 hPa 0,0 l/m 0 min 0 min 0 W/m 9,7 km/h (2 Bft) 100,00 %
31.03.2022 03:08 6,4 C 5,6 C 2,2 C 81 % 1000,6 hPa 0,0 l/m 0 min 0 min 0 W/m 6,4 km/h (2 Bft) 95,74 %
31.03.2022 03:10 6,3 C 5,6 C 2,2 C 81 % 1000,6 hPa 0,0 l/m 0 min 0 min 0 W/m 6,4 km/h (2 Bft) 97,87 %
31.03.2022 03:12 6,3 C 5,6 C 2,2 C 81 % 1000,6 hPa 0,0 l/m 0 min 0 min 0 W/m 6,4 km/h (2 Bft) 97,87 %
31.03.2022 03:14 6,3 C 5,6 C 2,2 C 81 % 1000,6 hPa 0,0 l/m 0 min 0 min 0 W/m 6,4 km/h (2 Bft) 97,87 %
31.03.2022 03:16 6,3 C 5,6 C 2,2 C 81 % 1000,6 hPa 0,0 l/m 0 min 0 min 0 W/m 6,4 km/h (2 Bft) 95,65 %
31.03.2022 03:18 6,3 C 5,6 C 2,2 C 81 % 1000,6 hPa 0,0 l/m 0 min 0 min 0 W/m 9,7 km/h (2 Bft) 97,87 %
31.03.2022 03:20 6,3 C 5,6 C 2,2 C 81 % 1000,6 hPa 0,0 l/m 0 min 0 min 0 W/m 9,7 km/h (2 Bft) 97,87 %
31.03.2022 03:22 6,3 C 5,6 C 2,2 C 81 % 1000,5 hPa 0,0 l/m 0 min 0 min 0 W/m 6,4 km/h (2 Bft) 97,87 %
31.03.2022 03:24 6,3 C 5,6 C 2,2 C 81 % 1000,5 hPa 0,0 l/m 0 min 0 min 0 W/m 9,7 km/h (2 Bft) 95,74 %
31.03.2022 03:26 6,3 C 5,6 C 2,2 C 81 % 1000,5 hPa 0,0 l/m 0 min 0 min 0 W/m 9,7 km/h (2 Bft) 97,87 %
31.03.2022 03:28 6,3 C 5,6 C 2,2 C 81 % 1000,5 hPa 0,0 l/m 0 min 0 min 0 W/m 6,4 km/h (2 Bft) 97,83 %
31.03.2022 03:30 6,3 C 5,6 C 2,2 C 81 % 1000,5 hPa 0,0 l/m 0 min 0 min 0 W/m 6,4 km/h (2 Bft) 97,87 %
31.03.2022 03:32 6,3 C 5,6 C 2,2 C 81 % 1000,5 hPa 0,0 l/m 0 min 0 min 0 W/m 3,2 km/h (1 Bft) 97,87 %
31.03.2022 03:34 6,3 C 5,6 C 2,2 C 81 % 1000,6 hPa 0,0 l/m 0 min 0 min 0 W/m 6,4 km/h (2 Bft) 97,87 %
31.03.2022 03:36 6,3 C 5,6 C 2,2 C 81 % 1000,5 hPa 0,0 l/m 0 min 0 min 0 W/m 9,7 km/h (2 Bft) 97,87 %
31.03.2022 03:38 6,2 C 5,6 C 2,2 C 81 % 1000,4 hPa 0,0 l/m 0 min 0 min 0 W/m 9,7 km/h (2 Bft) 95,74 %
31.03.2022 03:40 6,2 C 5,6 C 2,2 C 81 % 1000,4 hPa 0,0 l/m 0 min 0 min 0 W/m 9,7 km/h (2 Bft) 95,65 %
31.03.2022 03:42 6,2 C 5,6 C 2,2 C 81 % 1000,4 hPa 0,0 l/m 0 min 0 min 0 W/m 9,7 km/h (2 Bft) 95,74 %
31.03.2022 03:44 6,2 C 5,6 C 2,2 C 81 % 1000,3 hPa 0,0 l/m 0 min 0 min 0 W/m 12,9 km/h (3 Bft) 97,87 %
31.03.2022 03:46 6,2 C 5,6 C 2,2 C 81 % 1000,3 hPa 0,0 l/m 0 min 0 min 0 W/m 6,4 km/h (2 Bft) 95,74 %
31.03.2022 03:48 6,2 C 5,6 C 2,2 C 81 % 1000,3 hPa 0,0 l/m 0 min 0 min 0 W/m 9,7 km/h (2 Bft) 97,87 %
31.03.2022 03:50 6,2 C 5,6 C 2,2 C 81 % 1000,3 hPa 0,0 l/m 0 min 0 min 0 W/m 9,7 km/h (2 Bft) 95,65 %
31.03.2022 03:52 6,2 C 5,6 C 2,2 C 82 % 1000,3 hPa 0,0 l/m 0 min 0 min 0 W/m 6,4 km/h (2 Bft) 95,74 %
31.03.2022 03:54 6,2 C 5,6 C 2,2 C 82 % 1000,2 hPa 0,0 l/m 0 min 0 min 0 W/m 9,7 km/h (2 Bft) 93,62 %
31.03.2022 03:56 6,2 C 5,6 C 2,2 C 82 % 1000,2 hPa 0,0 l/m 0 min 0 min 0 W/m 9,7 km/h (2 Bft) 95,74 %
31.03.2022 03:58 6,2 C 5,6 C 2,2 C 82 % 1000,2 hPa 0,0 l/m 0 min 0 min 0 W/m 9,7 km/h (2 Bft) 93,62 %
31.03.2022 04:00 6,2 C 5,6 C 2,2 C 82 % 1000,2 hPa 0,0 l/m 0 min 0 min 0 W/m 6,4 km/h (2 Bft) 91,49 %
31.03.2022 04:02 6,1 C 5,6 C 2,2 C 82 % 1000,1 hPa 0,0 l/m 0 min 0 min 0 W/m 6,4 km/h (2 Bft) 100,00 %
31.03.2022 04:04 6,1 C 5,6 C 2,2 C 82 % 1000,1 hPa 0,0 l/m 0 min 0 min 0 W/m 6,4 km/h (2 Bft) 100,00 %
31.03.2022 04:06 6,1 C 5,6 C 2,2 C 82 % 1000,1 hPa 0,0 l/m 0 min 0 min 0 W/m 6,4 km/h (2 Bft) 91,49 %
31.03.2022 04:11 6,1 C 5,6 C 2,2 C 82 % 1000,1 hPa 0,0 l/m 0 min 0 min 0 W/m 6,4 km/h (2 Bft) 100,00 %
31.03.2022 04:12 6,1 C 5,6 C 2,2 C 82 % 1000,1 hPa 0,0 l/m 0 min 0 min 0 W/m 3,2 km/h (1 Bft) 100,00 %
31.03.2022 04:14 6,1 C 5,6 C 2,2 C 82 % 1000,1 hPa 0,0 l/m 0 min 0 min 0 W/m 6,4 km/h (2 Bft) 95,65 %
31.03.2022 04:16 6,1 C 5,6 C 2,2 C 82 % 1000,0 hPa 0,0 l/m 0 min 0 min 0 W/m 9,7 km/h (2 Bft) 97,87 %
31.03.2022 04:18 6,1 C 5,6 C 2,2 C 82 % 1000,0 hPa 0,0 l/m 0 min 0 min 0 W/m 6,4 km/h (2 Bft) 97,87 %
31.03.2022 04:20 6,1 C 5,6 C 2,2 C 82 % 1000,0 hPa 0,0 l/m 0 min 0 min 0 W/m 6,4 km/h (2 Bft) 93,62 %
31.03.2022 04:22 6,1 C 5,6 C 2,2 C 82 % 1000,0 hPa 0,0 l/m 0 min 0 min 0 W/m 12,9 km/h (3 Bft) 97,87 %
31.03.2022 04:24 6,1 C 5,6 C 2,2 C 82 % 999,9 hPa 0,0 l/m 0 min 0 min 0 W/m 12,9 km/h (3 Bft) 97,87 %
31.03.2022 04:26 6,1 C 5,6 C 2,2 C 82 % 1000,0 hPa 0,0 l/m 0 min 0 min 0 W/m 6,4 km/h (2 Bft) 97,83 %
31.03.2022 04:28 6,1 C 5,6 C 2,2 C 82 % 1000,0 hPa 0,0 l/m 0 min 0 min 0 W/m 6,4 km/h (2 Bft) 97,87 %
31.03.2022 04:30 6,1 C 5,6 C 2,2 C 82 % 999,9 hPa 0,0 l/m 0 min 0 min 0 W/m 12,9 km/h (3 Bft) 97,87 %
31.03.2022 04:32 6,1 C 5,6 C 2,2 C 82 % 999,8 hPa 0,0 l/m 0 min 0 min 0 W/m 6,4 km/h (2 Bft) 97,87 %
31.03.2022 04:34 6,0 C 5,6 C 2,2 C 83 % 999,8 hPa 0,0 l/m 0 min 0 min 0 W/m 6,4 km/h (2 Bft) 97,87 %
31.03.2022 04:36 6,0 C 5,6 C 2,2 C 83 % 999,8 hPa 0,0 l/m 0 min 0 min 0 W/m 9,7 km/h (2 Bft) 97,83 %
31.03.2022 04:38 6,0 C 5,6 C 2,2 C 83 % 999,8 hPa 0,0 l/m 0 min 0 min 0 W/m 6,4 km/h (2 Bft) 97,87 %
31.03.2022 04:40 6,0 C 5,6 C 2,2 C 83 % 999,8 hPa 0,0 l/m 0 min 0 min 0 W/m 6,4 km/h (2 Bft) 100,00 %
31.03.2022 04:42 6,0 C 5,6 C 1,7 C 83 % 999,7 hPa 0,0 l/m 0 min 0 min 0 W/m 6,4 km/h (2 Bft) 100,00 %
31.03.2022 04:44 6,0 C 5,6 C 1,7 C 83 % 999,7 hPa 0,0 l/m 0 min 0 min 0 W/m 6,4 km/h (2 Bft) 100,00 %
31.03.2022 04:46 6,0 C 5,6 C 2,2 C 83 % 999,7 hPa 0,0 l/m 0 min 0 min 0 W/m 3,2 km/h (1 Bft) 100,00 %
31.03.2022 04:48 6,0 C 5,6 C 2,2 C 83 % 999,7 hPa 0,0 l/m 0 min 0 min 0 W/m 3,2 km/h (1 Bft) 97,87 %
31.03.2022 04:50 6,0 C 5,6 C 2,2 C 83 % 999,7 hPa 0,0 l/m 0 min 0 min 0 W/m 6,4 km/h (2 Bft) 100,00 %
31.03.2022 04:52 5,9 C 5,6 C 2,2 C 83 % 999,7 hPa 0,0 l/m 0 min 0 min 0 W/m 6,4 km/h (2 Bft) 97,87 %
31.03.2022 04:54 5,9 C 5,6 C 2,2 C 83 % 999,7 hPa 0,0 l/m 0 min 0 min 0 W/m 6,4 km/h (2 Bft) 100,00 %
31.03.2022 04:56 5,9 C 5,6 C 2,2 C 83 % 999,7 hPa 0,0 l/m 0 min 0 min 0 W/m 3,2 km/h (1 Bft) 100,00 %
31.03.2022 04:58 5,9 C 5,6 C 2,2 C 83 % 999,7 hPa 0,0 l/m 0 min 0 min 0 W/m 6,4 km/h (2 Bft) 100,00 %
31.03.2022 05:00 5,9 C 5,6 C 2,2 C 83 % 999,6 hPa 0,0 l/m 0 min 0 min 0 W/m 3,2 km/h (1 Bft) 100,00 %
31.03.2022 05:02 5,9 C 5,6 C 2,2 C 83 % 999,6 hPa 0,0 l/m 0 min 0 min 0 W/m 6,4 km/h (2 Bft) 100,00 %
31.03.2022 05:04 5,9 C 5,6 C 2,2 C 83 % 999,6 hPa 0,0 l/m 0 min 0 min 0 W/m 6,4 km/h (2 Bft) 100,00 %
31.03.2022 05:06 5,9 C 5,6 C 2,2 C 83 % 999,6 hPa 0,0 l/m 0 min 0 min 0 W/m 6,4 km/h (2 Bft) 100,00 %
31.03.2022 05:08 5,9 C 5,6 C 2,2 C 83 % 999,6 hPa 0,0 l/m 0 min 0 min 0 W/m 3,2 km/h (1 Bft) 100,00 %
31.03.2022 05:10 5,9 C 5,6 C 2,2 C 83 % 999,6 hPa 0,0 l/m 0 min 0 min 0 W/m 6,4 km/h (2 Bft) 97,87 %
31.03.2022 05:12 5,9 C 5,6 C 1,7 C 83 % 999,5 hPa 0,0 l/m 0 min 0 min 0 W/m 3,2 km/h (1 Bft) 100,00 %
31.03.2022 05:14 5,9 C 5,6 C 2,2 C 83 % 999,5 hPa 0,0 l/m 0 min 0 min 0 W/m 6,4 km/h (2 Bft) 97,87 %
31.03.2022 05:16 5,9 C 5,6 C 2,2 C 83 % 999,6 hPa 0,0 l/m 0 min 0 min 0 W/m 3,2 km/h (1 Bft) 100,00 %
31.03.2022 05:18 5,9 C 5,6 C 2,2 C 83 % 999,5 hPa 0,0 l/m 0 min 0 min 0 W/m 3,2 km/h (1 Bft) 100,00 %
31.03.2022 05:20 5,9 C 5,6 C 2,2 C 84 % 999,5 hPa 0,0 l/m 0 min 0 min 0 W/m 3,2 km/h (1 Bft) 100,00 %
31.03.2022 05:22 5,9 C 5,6 C 2,2 C 84 % 999,5 hPa 0,0 l/m 0 min 0 min 0 W/m 3,2 km/h (1 Bft) 100,00 %
31.03.2022 05:24 5,9 C 5,6 C 2,2 C 84 % 999,5 hPa 0,0 l/m 0 min 0 min 0 W/m 6,4 km/h (2 Bft) 100,00 %
31.03.2022 05:26 5,9 C 5,6 C 2,2 C 84 % 999,5 hPa 0,0 l/m 0 min 0 min 0 W/m 3,2 km/h (1 Bft) 100,00 %
31.03.2022 05:28 5,9 C 5,6 C 2,2 C 84 % 999,5 hPa 0,0 l/m 0 min 0 min 0 W/m 3,2 km/h (1 Bft) 100,00 %
31.03.2022 05:30 5,9 C 5,6 C 2,2 C 84 % 999,5 hPa 0,0 l/m 0 min 0 min 0 W/m 3,2 km/h (1 Bft) 100,00 %
31.03.2022 05:32 5,9 C 5,6 C 2,2 C 84 % 999,5 hPa 0,0 l/m 0 min 0 min 0 W/m 3,2 km/h (1 Bft) 97,87 %
31.03.2022 05:34 5,9 C 5,6 C 2,2 C 84 % 999,5 hPa 0,0 l/m 0 min 0 min 0 W/m 3,2 km/h (1 Bft) 97,87 %
31.03.2022 05:36 5,9 C 5,6 C 1,7 C 84 % 999,5 hPa 0,0 l/m 0 min 0 min 0 W/m 3,2 km/h (1 Bft) 97,87 %
31.03.2022 05:38 5,9 C 5,6 C 1,7 C 84 % 999,5 hPa 0,0 l/m 0 min 0 min 0 W/m 3,2 km/h (1 Bft) 97,87 %
31.03.2022 05:40 5,9 C 5,6 C 1,7 C 84 % 999,5 hPa 0,0 l/m 0 min 0 min 0 W/m 3,2 km/h (1 Bft) 97,83 %
31.03.2022 05:42 5,9 C 5,6 C 1,7 C 84 % 999,5 hPa 0,0 l/m 0 min 0 min 0 W/m 3,2 km/h (1 Bft) 97,87 %
31.03.2022 05:44 5,9 C 5,6 C 1,7 C 85 % 999,5 hPa 0,0 l/m 0 min 0 min 0 W/m 3,2 km/h (1 Bft) 95,74 %
31.03.2022 05:46 5,9 C 5,6 C 1,7 C 85 % 999,5 hPa 0,0 l/m 0 min 0 min 0 W/m 3,2 km/h (1 Bft) 95,74 %
31.03.2022 05:48 5,9 C 5,6 C 1,7 C 85 % 999,5 hPa 0,0 l/m 0 min 0 min 0 W/m 3,2 km/h (1 Bft) 97,87 %
31.03.2022 05:50 6,0 C 5,6 C 1,7 C 85 % 999,5 hPa 0,0 l/m 0 min 0 min 0 W/m 3,2 km/h (1 Bft) 97,87 %
31.03.2022 05:52 6,0 C 5,6 C 1,7 C 85 % 999,5 hPa 0,0 l/m 0 min 0 min 0 W/m 3,2 km/h (1 Bft) 95,74 %
31.03.2022 05:54 6,0 C 5,6 C 1,7 C 85 % 999,6 hPa 0,0 l/m 0 min 0 min 0 W/m 6,4 km/h (2 Bft) 97,83 %
31.03.2022 05:56 6,0 C 5,6 C 1,7 C 85 % 999,5 hPa 0,0 l/m 0 min 0 min 0 W/m 3,2 km/h (1 Bft) 95,74 %
31.03.2022 05:58 6,0 C 5,6 C 1,7 C 85 % 999,6 hPa 0,0 l/m 0 min 0 min 0 W/m 3,2 km/h (1 Bft) 97,87 %
31.03.2022 06:00 6,0 C 5,0 C 1,7 C 85 % 999,6 hPa 0,0 l/m 0 min 2 min 0 W/m 3,2 km/h (1 Bft) 85,11 %
31.03.2022 06:02 6,0 C 5,0 C 1,7 C 85 % 999,5 hPa 0,0 l/m 0 min 2 min 0 W/m 3,2 km/h (1 Bft) 65,85 %
31.03.2022 06:04 6,0 C 5,0 C 1,7 C 85 % 999,5 hPa 0,0 l/m 0 min 2 min 0 W/m 6,4 km/h (2 Bft) 95,74 %
31.03.2022 06:08 5,9 C 5,0 C 1,7 C 86 % 999,5 hPa 0,0 l/m 0 min 4 min 0 W/m 3,2 km/h (1 Bft) 98,92 %
31.03.2022 06:10 5,9 C 5,0 C 1,7 C 86 % 999,4 hPa 0,0 l/m 0 min 2 min 0 W/m 3,2 km/h (1 Bft) 100,00 %
31.03.2022 06:12 6,0 C 5,0 C 1,7 C 86 % 999,5 hPa 0,0 l/m 0 min 2 min 0 W/m 6,4 km/h (2 Bft) 97,87 %
31.03.2022 06:14 6,0 C 5,0 C 1,7 C 86 % 999,4 hPa 0,0 l/m 0 min 2 min 0 W/m 6,4 km/h (2 Bft) 100,00 %
31.03.2022 06:16 6,0 C 5,0 C 1,7 C 86 % 999,4 hPa 0,0 l/m 0 min 2 min 0 W/m 9,7 km/h (2 Bft) 97,83 %
31.03.2022 06:18 5,9 C 5,0 C 1,7 C 86 % 999,4 hPa 0,0 l/m 0 min 2 min 0 W/m 3,2 km/h (1 Bft) 97,87 %
31.03.2022 06:20 5,9 C 5,0 C 1,7 C 86 % 999,4 hPa 0,0 l/m 0 min 2 min 0 W/m 3,2 km/h (1 Bft) 97,87 %
31.03.2022 06:22 5,9 C 5,0 C 1,7 C 86 % 999,4 hPa 0,0 l/m 0 min 2 min 0 W/m 3,2 km/h (1 Bft) 97,87 %
31.03.2022 06:24 5,9 C 5,0 C 1,7 C 86 % 999,4 hPa 0,0 l/m 0 min 2 min 0 W/m 6,4 km/h (2 Bft) 97,87 %
31.03.2022 06:26 5,9 C 5,0 C 1,7 C 86 % 999,4 hPa 0,0 l/m 0 min 2 min 0 W/m 3,2 km/h (1 Bft) 95,74 %
31.03.2022 06:28 5,9 C 5,0 C 1,7 C 86 % 999,3 hPa 0,0 l/m 0 min 2 min 0 W/m 3,2 km/h (1 Bft) 95,65 %
31.03.2022 06:30 5,9 C 5,0 C 1,7 C 87 % 999,3 hPa 0,0 l/m 0 min 2 min 0 W/m 3,2 km/h (1 Bft) 95,74 %
31.03.2022 06:32 5,9 C 5,0 C 1,7 C 87 % 999,4 hPa 0,0 l/m 0 min 2 min 0 W/m 3,2 km/h (1 Bft) 95,74 %
31.03.2022 06:34 5,9 C 5,0 C 1,7 C 87 % 999,3 hPa 0,0 l/m 0 min 2 min 0 W/m 3,2 km/h (1 Bft) 93,62 %
31.03.2022 06:36 5,9 C 5,0 C 1,7 C 87 % 999,3 hPa 0,2 l/m 0 min 2 min 0 W/m 3,2 km/h (1 Bft) 89,36 %
31.03.2022 06:38 5,9 C 5,0 C 1,7 C 87 % 999,3 hPa 0,0 l/m 0 min 2 min 0 W/m 3,2 km/h (1 Bft) 97,87 %
31.03.2022 06:40 5,9 C 5,0 C 1,7 C 87 % 999,3 hPa 0,0 l/m 0 min 2 min 0 W/m 3,2 km/h (1 Bft) 93,48 %
31.03.2022 06:42 5,9 C 5,0 C 1,7 C 87 % 999,3 hPa 0,0 l/m 0 min 2 min 0 W/m 3,2 km/h (1 Bft) 93,62 %
31.03.2022 06:44 5,9 C 5,0 C 1,7 C 87 % 999,3 hPa 0,0 l/m 0 min 2 min 0 W/m 3,2 km/h (1 Bft) 95,74 %
31.03.2022 06:46 5,9 C 5,0 C 1,7 C 88 % 999,3 hPa 0,0 l/m 0 min 2 min 0 W/m 3,2 km/h (1 Bft) 95,74 %
31.03.2022 06:48 5,9 C 5,0 C 1,7 C 88 % 999,4 hPa 0,0 l/m 0 min 2 min 0 W/m 3,2 km/h (1 Bft) 95,74 %
31.03.2022 06:50 5,9 C 5,0 C 1,7 C 88 % 999,3 hPa 0,0 l/m 0 min 2 min 0 W/m 3,2 km/h (1 Bft) 95,74 %
31.03.2022 06:52 5,9 C 5,0 C 1,7 C 88 % 999,3 hPa 0,0 l/m 0 min 2 min 0 W/m 6,4 km/h (2 Bft) 95,65 %
31.03.2022 06:54 5,9 C 5,0 C 1,7 C 88 % 999,3 hPa 0,0 l/m 0 min 2 min 0 W/m 3,2 km/h (1 Bft) 95,74 %
31.03.2022 06:56 5,9 C 5,0 C 1,7 C 88 % 999,3 hPa 0,0 l/m 0 min 0 min 0 W/m 3,2 km/h (1 Bft) 95,74 %
31.03.2022 06:58 5,8 C 5,0 C 1,7 C 88 % 999,3 hPa 0,0 l/m 0 min 0 min 0 W/m 3,2 km/h (1 Bft) 97,87 %
31.03.2022 07:00 5,8 C 5,0 C 1,7 C 89 % 999,3 hPa 0,0 l/m 0 min 2 min 0 W/m 3,2 km/h (1 Bft) 97,87 %
31.03.2022 07:02 5,8 C 5,0 C 1,7 C 89 % 999,3 hPa 0,0 l/m 0 min 2 min 0 W/m 3,2 km/h (1 Bft) 95,74 %
31.03.2022 07:04 5,8 C 5,0 C 1,7 C 89 % 999,3 hPa 0,0 l/m 0 min 0 min 0 W/m 3,2 km/h (1 Bft) 97,83 %
31.03.2022 07:06 5,8 C 5,0 C 1,7 C 89 % 999,3 hPa 0,0 l/m 0 min 0 min 0 W/m 0,0 km/h (0 Bft) 97,87 %
31.03.2022 07:08 5,8 C 5,0 C 1,7 C 89 % 999,3 hPa 0,0 l/m 0 min 0 min 0 W/m 3,2 km/h (1 Bft) 97,87 %
31.03.2022 07:10 5,8 C 5,0 C 1,7 C 89 % 999,4 hPa 0,0 l/m 0 min 0 min 0 W/m 3,2 km/h (1 Bft) 97,87 %
31.03.2022 07:12 5,8 C 5,0 C 1,7 C 89 % 999,3 hPa 0,0 l/m 0 min 0 min 0 W/m 3,2 km/h (1 Bft) 95,74 %
31.03.2022 07:14 5,8 C 5,0 C 1,7 C 89 % 999,3 hPa 0,0 l/m 0 min 2 min 0 W/m 0,0 km/h (0 Bft) 97,87 %
31.03.2022 07:16 5,8 C 5,0 C 1,7 C 89 % 999,3 hPa 0,0 l/m 0 min 2 min 0 W/m 3,2 km/h (1 Bft) 93,48 %
31.03.2022 07:18 5,8 C 5,0 C 1,7 C 89 % 999,3 hPa 0,0 l/m 0 min 2 min 0 W/m 3,2 km/h (1 Bft) 97,87 %
31.03.2022 07:20 5,8 C 5,0 C 1,7 C 89 % 999,3 hPa 0,0 l/m 0 min 2 min 0 W/m 3,2 km/h (1 Bft) 95,74 %
31.03.2022 07:22 5,8 C 5,0 C 1,7 C 90 % 999,3 hPa 0,0 l/m 0 min 2 min 0 W/m 3,2 km/h (1 Bft) 95,74 %
31.03.2022 07:24 5,8 C 5,0 C 1,7 C 90 % 999,4 hPa 0,0 l/m 0 min 2 min 0 W/m 0,0 km/h (0 Bft) 95,74 %
31.03.2022 07:26 5,8 C 5,0 C 1,7 C 90 % 999,3 hPa 0,0 l/m 0 min 2 min 0 W/m 0,0 km/h (0 Bft) 93,48 %
31.03.2022 07:28 5,8 C 5,0 C 1,7 C 90 % 999,4 hPa 0,0 l/m 0 min 2 min 1 W/m 3,2 km/h (1 Bft) 97,87 %
31.03.2022 07:30 5,8 C 5,0 C 1,7 C 90 % 999,3 hPa 0,0 l/m 0 min 2 min 5 W/m 3,2 km/h (1 Bft) 97,87 %
31.03.2022 07:32 5,8 C 5,0 C 1,7 C 90 % 999,4 hPa 0,2 l/m 0 min 2 min 5 W/m 6,4 km/h (2 Bft) 97,87 %
31.03.2022 07:34 5,8 C 5,0 C 1,7 C 90 % 999,4 hPa 0,0 l/m 0 min 2 min 5 W/m 3,2 km/h (1 Bft) 95,74 %
31.03.2022 07:36 5,8 C 5,0 C 1,7 C 90 % 999,3 hPa 0,0 l/m 0 min 2 min 7 W/m 0,0 km/h (0 Bft) 97,87 %
31.03.2022 07:38 5,8 C 5,0 C 1,7 C 90 % 999,4 hPa 0,0 l/m 0 min 2 min 7 W/m 0,0 km/h (0 Bft) 95,74 %
31.03.2022 07:40 5,8 C 5,0 C 1,7 C 91 % 999,4 hPa 0,0 l/m 0 min 2 min 8 W/m 0,0 km/h (0 Bft) 97,83 %
31.03.2022 07:42 5,8 C 5,0 C 1,7 C 91 % 999,3 hPa 0,0 l/m 0 min 2 min 9 W/m 0,0 km/h (0 Bft) 97,87 %
31.03.2022 07:44 5,8 C 5,0 C 1,7 C 91 % 999,3 hPa 0,0 l/m 0 min 2 min 11 W/m 3,2 km/h (1 Bft) 95,74 %
31.03.2022 07:46 5,8 C 5,0 C 1,7 C 91 % 999,4 hPa 0,0 l/m 0 min 2 min 11 W/m 0,0 km/h (0 Bft) 95,74 %
31.03.2022 07:48 5,9 C 5,0 C 1,7 C 91 % 999,3 hPa 0,0 l/m 0 min 2 min 12 W/m 0,0 km/h (0 Bft) 100,00 %
31.03.2022 07:50 5,9 C 5,0 C 1,7 C 91 % 999,4 hPa 0,0 l/m 0 min 2 min 12 W/m 0,0 km/h (0 Bft) 100,00 %
31.03.2022 07:52 5,9 C 5,0 C 1,7 C 91 % 999,4 hPa 0,0 l/m 0 min 2 min 12 W/m 3,2 km/h (1 Bft) 100,00 %
31.03.2022 07:54 5,9 C 5,0 C 1,7 C 91 % 999,3 hPa 0,0 l/m 0 min 2 min 14 W/m 3,2 km/h (1 Bft) 100,00 %
31.03.2022 07:56 5,9 C 5,0 C 1,7 C 91 % 999,3 hPa 0,0 l/m 0 min 2 min 14 W/m 3,2 km/h (1 Bft) 100,00 %
31.03.2022 07:58 5,9 C 5,0 C 1,7 C 91 % 999,3 hPa 0,0 l/m 0 min 2 min 16 W/m 3,2 km/h (1 Bft) 100,00 %
31.03.2022 08:00 5,9 C 5,0 C 1,7 C 92 % 999,3 hPa 0,0 l/m 0 min 2 min 18 W/m 0,0 km/h (0 Bft) 100,00 %
31.03.2022 08:02 6,0 C 5,6 C 1,7 C 92 % 999,3 hPa 0,0 l/m 0 min 2 min 19 W/m 3,2 km/h (1 Bft) 100,00 %
31.03.2022 08:04 6,0 C 5,6 C 1,7 C 92 % 999,3 hPa 0,0 l/m 0 min 2 min 20 W/m 3,2 km/h (1 Bft) 100,00 %
31.03.2022 08:06 6,0 C 5,6 C 1,7 C 92 % 999,3 hPa 0,0 l/m 0 min 2 min 21 W/m 3,2 km/h (1 Bft) 100,00 %
31.03.2022 08:08 6,0 C 5,0 C 1,7 C 92 % 999,4 hPa 0,0 l/m 0 min 2 min 21 W/m 3,2 km/h (1 Bft) 100,00 %
31.03.2022 08:10 6,0 C 5,0 C 1,7 C 92 % 999,4 hPa 0,0 l/m 0 min 2 min 22 W/m 0,0 km/h (0 Bft) 97,87 %
31.03.2022 08:12 6,1 C 5,6 C 1,7 C 92 % 999,3 hPa 0,0 l/m 0 min 2 min 23 W/m 0,0 km/h (0 Bft) 97,87 %
31.03.2022 08:14 6,1 C 5,6 C 1,7 C 92 % 999,4 hPa 0,0 l/m 0 min 2 min 24 W/m 0,0 km/h (0 Bft) 70,21 %
31.03.2022 08:16 6,1 C 5,6 C 1,7 C 92 % 999,4 hPa 0,0 l/m 0 min 2 min 25 W/m 0,0 km/h (0 Bft) 86,05 %
31.03.2022 08:18 6,1 C 5,6 C 1,7 C 93 % 999,4 hPa 0,0 l/m 0 min 2 min 27 W/m 3,2 km/h (1 Bft) 100,00 %
31.03.2022 08:20 6,1 C 5,0 C 1,7 C 93 % 999,4 hPa 0,0 l/m 0 min 2 min 29 W/m 3,2 km/h (1 Bft) 97,87 %
31.03.2022 08:22 6,1 C 5,0 C 1,7 C 93 % 999,4 hPa 0,0 l/m 0 min 2 min 31 W/m 6,4 km/h (2 Bft) 95,74 %
31.03.2022 08:24 6,1 C 5,0 C 1,7 C 93 % 999,4 hPa 0,0 l/m 0 min 2 min 33 W/m 3,2 km/h (1 Bft) 100,00 %
31.03.2022 08:26 6,1 C 5,6 C 1,7 C 93 % 999,4 hPa 0,0 l/m 0 min 2 min 33 W/m 3,2 km/h (1 Bft) 95,65 %
31.03.2022 08:28 6,1 C 5,0 C 1,7 C 93 % 999,4 hPa 0,0 l/m 0 min 2 min 33 W/m 3,2 km/h (1 Bft) 97,87 %
31.03.2022 08:30 6,1 C 5,6 C 1,7 C 93 % 999,4 hPa 0,0 l/m 0 min 2 min 33 W/m 3,2 km/h (1 Bft) 95,74 %
31.03.2022 08:32 6,1 C 5,6 C 1,7 C 93 % 999,4 hPa 0,0 l/m 0 min 2 min 32 W/m 3,2 km/h (1 Bft) 97,87 %
31.03.2022 08:34 6,1 C 5,6 C 1,7 C 93 % 999,4 hPa 0,2 l/m 0 min 2 min 32 W/m 3,2 km/h (1 Bft) 97,87 %
31.03.2022 08:36 6,1 C 5,0 C 1,7 C 93 % 999,4 hPa 0,0 l/m 0 min 2 min 32 W/m 3,2 km/h (1 Bft) 97,87 %
31.03.2022 08:38 6,1 C 5,6 C 1,7 C 93 % 999,4 hPa 0,0 l/m 0 min 2 min 32 W/m 3,2 km/h (1 Bft) 97,83 %
31.03.2022 08:40 6,1 C 5,0 C 1,7 C 93 % 999,4 hPa 0,0 l/m 0 min 2 min 32 W/m 6,4 km/h (2 Bft) 97,87 %
31.03.2022 08:42 6,1 C 5,6 C 1,7 C 93 % 999,4 hPa 0,0 l/m 0 min 2 min 32 W/m 3,2 km/h (1 Bft) 97,87 %
31.03.2022 08:44 6,0 C 5,6 C 1,7 C 93 % 999,4 hPa 0,0 l/m 0 min 2 min 32 W/m 3,2 km/h (1 Bft) 97,87 %
31.03.2022 08:46 6,0 C 5,6 C 1,7 C 93 % 999,4 hPa 0,0 l/m 0 min 2 min 32 W/m 3,2 km/h (1 Bft) 97,87 %
31.03.2022 08:48 6,0 C 5,6 C 1,7 C 93 % 999,4 hPa 0,0 l/m 0 min 2 min 30 W/m 0,0 km/h (0 Bft) 95,65 %
31.03.2022 08:50 6,0 C 5,6 C 1,7 C 93 % 999,4 hPa 0,2 l/m 0 min 2 min 30 W/m 6,4 km/h (2 Bft) 93,62 %
31.03.2022 08:52 6,0 C 5,0 C 1,7 C 93 % 999,4 hPa 0,0 l/m 0 min 2 min 30 W/m 3,2 km/h (1 Bft) 97,87 %
31.03.2022 08:54 6,0 C 5,0 C 1,7 C 93 % 999,4 hPa 0,0 l/m 0 min 2 min 30 W/m 3,2 km/h (1 Bft) 97,87 %
31.03.2022 08:56 5,9 C 5,0 C 1,7 C 93 % 999,4 hPa 0,0 l/m 0 min 2 min 31 W/m 9,7 km/h (2 Bft) 97,87 %
31.03.2022 08:58 6,0 C 5,0 C 1,7 C 93 % 999,4 hPa 0,0 l/m 0 min 2 min 33 W/m 3,2 km/h (1 Bft) 97,87 %
31.03.2022 09:00 6,0 C 5,6 C 1,7 C 93 % 999,4 hPa 0,0 l/m 0 min 2 min 36 W/m 3,2 km/h (1 Bft) 95,65 %
31.03.2022 09:02 6,0 C 5,6 C 1,7 C 93 % 999,4 hPa 0,0 l/m 0 min 2 min 37 W/m 3,2 km/h (1 Bft) 100,00 %
31.03.2022 09:04 6,0 C 5,6 C 2,2 C 93 % 999,4 hPa 0,0 l/m 0 min 2 min 37 W/m 3,2 km/h (1 Bft) 95,74 %
31.03.2022 09:06 6,0 C 5,6 C 2,2 C 93 % 999,4 hPa 0,0 l/m 0 min 2 min 35 W/m 3,2 km/h (1 Bft) 97,87 %
31.03.2022 09:08 6,1 C 5,6 C 2,2 C 93 % 999,3 hPa 0,0 l/m 0 min 2 min 37 W/m 6,4 km/h (2 Bft) 97,87 %
31.03.2022 09:10 6,1 C 5,0 C 2,2 C 93 % 999,3 hPa 0,0 l/m 0 min 2 min 43 W/m 6,4 km/h (2 Bft) 93,88 %
31.03.2022 09:12 6,1 C 5,0 C 1,7 C 93 % 999,3 hPa 0,0 l/m 0 min 2 min 48 W/m 12,9 km/h (3 Bft) 97,83 %
31.03.2022 09:14 6,0 C 5,0 C 1,7 C 93 % 999,3 hPa 0,0 l/m 0 min 2 min 55 W/m 3,2 km/h (1 Bft) 97,87 %
31.03.2022 09:16 5,9 C 5,0 C 1,7 C 93 % 999,3 hPa 0,0 l/m 0 min 2 min 59 W/m 6,4 km/h (2 Bft) 97,87 %
31.03.2022 09:18 5,9 C 5,0 C 1,7 C 93 % 999,3 hPa 0,0 l/m 0 min 2 min 63 W/m 3,2 km/h (1 Bft) 97,87 %
31.03.2022 09:20 5,9 C 5,0 C 1,7 C 93 % 999,4 hPa 0,0 l/m 0 min 2 min 69 W/m 12,9 km/h (3 Bft) 97,87 %
31.03.2022 09:22 5,8 C 5,0 C 1,7 C 93 % 999,3 hPa 0,0 l/m 0 min 2 min 75 W/m 9,7 km/h (2 Bft) 97,83 %
31.03.2022 09:24 5,8 C 5,0 C 1,7 C 94 % 999,3 hPa 0,0 l/m 0 min 2 min 82 W/m 6,4 km/h (2 Bft) 97,87 %
31.03.2022 09:26 5,8 C 5,6 C 1,7 C 94 % 999,3 hPa 0,0 l/m 0 min 2 min 83 W/m 6,4 km/h (2 Bft) 95,74 %
31.03.2022 09:28 5,8 C 5,6 C 1,7 C 94 % 999,3 hPa 0,2 l/m 0 min 2 min 84 W/m 3,2 km/h (1 Bft) 97,87 %
31.03.2022 09:30 5,8 C 5,6 C 1,7 C 94 % 999,3 hPa 0,0 l/m 0 min 0 min 84 W/m 3,2 km/h (1 Bft) 97,87 %
31.03.2022 09:32 5,9 C 5,6 C 1,7 C 94 % 999,4 hPa 0,0 l/m 0 min 2 min 88 W/m 16,1 km/h (3 Bft) 97,87 %
31.03.2022 09:34 5,9 C 5,6 C 1,7 C 94 % 999,4 hPa 0,0 l/m 0 min 0 min 96 W/m 3,2 km/h (1 Bft) 100,00 %
31.03.2022 09:36 5,9 C 5,6 C 1,7 C 94 % 999,4 hPa 0,0 l/m 0 min 0 min 104 W/m 6,4 km/h (2 Bft) 100,00 %
31.03.2022 09:38 5,9 C 5,6 C 2,2 C 94 % 999,4 hPa 0,0 l/m 0 min 0 min 109 W/m 6,4 km/h (2 Bft) 97,87 %
31.03.2022 09:40 5,9 C 5,6 C 1,7 C 94 % 999,3 hPa 0,0 l/m 0 min 2 min 112 W/m 6,4 km/h (2 Bft) 100,00 %
31.03.2022 09:42 5,9 C 5,6 C 1,7 C 94 % 999,3 hPa 0,0 l/m 0 min 0 min 114 W/m 6,4 km/h (2 Bft) 100,00 %
31.03.2022 09:44 5,9 C 5,6 C 2,2 C 94 % 999,3 hPa 0,0 l/m 0 min 0 min 114 W/m 6,4 km/h (2 Bft) 100,00 %
31.03.2022 09:46 5,9 C 5,6 C 2,2 C 94 % 999,3 hPa 0,0 l/m 0 min 0 min 114 W/m 3,2 km/h (1 Bft) 97,83 %
31.03.2022 09:48 5,9 C 6,1 C 2,2 C 94 % 999,3 hPa 0,0 l/m 0 min 0 min 117 W/m 3,2 km/h (1 Bft) 100,00 %
31.03.2022 09:50 5,9 C 6,1 C 2,2 C 94 % 999,3 hPa 0,0 l/m 0 min 2 min 123 W/m 6,4 km/h (2 Bft) 97,87 %
31.03.2022 09:52 5,9 C 6,1 C 2,2 C 94 % 999,3 hPa 0,0 l/m 0 min 2 min 127 W/m 3,2 km/h (1 Bft) 100,00 %
31.03.2022 09:54 6,0 C 6,1 C 2,2 C 94 % 999,3 hPa 0,0 l/m 0 min 0 min 129 W/m 3,2 km/h (1 Bft) 97,87 %
31.03.2022 09:56 6,0 C 6,1 C 2,2 C 94 % 999,3 hPa 0,0 l/m 0 min 0 min 129 W/m 6,4 km/h (2 Bft) 97,87 %
31.03.2022 09:58 6,0 C 6,1 C 2,2 C 94 % 999,3 hPa 0,0 l/m 0 min 0 min 120 W/m 6,4 km/h (2 Bft) 93,48 %
31.03.2022 10:00 6,0 C 6,1 C 2,2 C 94 % 999,3 hPa 0,0 l/m 0 min 0 min 104 W/m 6,4 km/h (2 Bft) 97,87 %
31.03.2022 10:02 6,0 C 6,1 C 2,2 C 94 % 999,3 hPa 0,0 l/m 0 min 2 min 92 W/m 3,2 km/h (1 Bft) 97,87 %
31.03.2022 10:04 6,1 C 6,1 C 2,2 C 94 % 999,3 hPa 0,0 l/m 0 min 2 min 86 W/m 6,4 km/h (2 Bft) 93,62 %
31.03.2022 10:06 6,1 C 6,1 C 2,2 C 94 % 999,3 hPa 0,0 l/m 0 min 2 min 84 W/m 6,4 km/h (2 Bft) 97,87 %
31.03.2022 10:08 6,1 C 6,1 C 2,2 C 94 % 999,3 hPa 0,0 l/m 0 min 2 min 84 W/m 6,4 km/h (2 Bft) 97,92 %
31.03.2022 10:10 6,1 C 6,1 C 2,2 C 94 % 999,3 hPa 0,0 l/m 0 min 0 min 84 W/m 12,9 km/h (3 Bft) 97,87 %
31.03.2022 10:12 6,1 C 6,1 C 2,2 C 94 % 999,3 hPa 0,0 l/m 0 min 2 min 84 W/m 6,4 km/h (2 Bft) 97,87 %
31.03.2022 10:14 6,1 C 6,1 C 2,2 C 94 % 999,3 hPa 0,0 l/m 0 min 2 min 88 W/m 9,7 km/h (2 Bft) 97,87 %
31.03.2022 10:16 6,1 C 6,1 C 2,2 C 94 % 999,3 hPa 0,0 l/m 0 min 2 min 90 W/m 9,7 km/h (2 Bft) 95,74 %
31.03.2022 10:18 6,1 C 6,1 C 2,2 C 95 % 999,2 hPa 0,0 l/m 0 min 0 min 90 W/m 9,7 km/h (2 Bft) 97,83 %
31.03.2022 10:20 6,1 C 6,1 C 2,2 C 95 % 999,3 hPa 0,0 l/m 0 min 2 min 88 W/m 6,4 km/h (2 Bft) 95,74 %
31.03.2022 10:22 6,2 C 6,1 C 2,2 C 95 % 999,2 hPa 0,0 l/m 0 min 2 min 85 W/m 6,4 km/h (2 Bft) 97,87 %
31.03.2022 10:24 6,2 C 6,1 C 2,2 C 95 % 999,3 hPa 0,0 l/m 0 min 2 min 83 W/m 3,2 km/h (1 Bft) 97,87 %
31.03.2022 10:26 6,2 C 6,1 C 2,2 C 95 % 999,3 hPa 0,0 l/m 0 min 2 min 81 W/m 9,7 km/h (2 Bft) 95,74 %
31.03.2022 10:28 6,2 C 6,1 C 2,2 C 95 % 999,3 hPa 0,0 l/m 0 min 2 min 79 W/m 3,2 km/h (1 Bft) 97,87 %
31.03.2022 10:30 6,2 C 6,1 C 2,2 C 95 % 999,2 hPa 0,0 l/m 0 min 2 min 71 W/m 12,9 km/h (3 Bft) 95,65 %
31.03.2022 10:32 6,1 C 5,6 C 2,2 C 95 % 999,3 hPa 0,0 l/m 0 min 2 min 64 W/m 6,4 km/h (2 Bft) 97,87 %
31.03.2022 10:34 6,1 C 6,1 C 2,2 C 95 % 999,3 hPa 0,2 l/m 0 min 2 min 64 W/m 12,9 km/h (3 Bft) 95,74 %
31.03.2022 10:36 6,1 C 6,1 C 2,2 C 95 % 999,3 hPa 0,0 l/m 0 min 2 min 70 W/m 6,4 km/h (2 Bft) 95,74 %
31.03.2022 10:38 6,1 C 6,1 C 2,2 C 95 % 999,2 hPa 0,0 l/m 0 min 2 min 74 W/m 6,4 km/h (2 Bft) 39,47 %
31.03.2022 10:40 6,1 C 6,1 C 2,2 C 95 % 999,3 hPa 0,0 l/m 0 min 2 min 89 W/m 9,7 km/h (2 Bft) 97,87 %
31.03.2022 10:42 6,1 C 5,6 C 2,2 C 94 % 999,2 hPa 0,0 l/m 0 min 2 min 98 W/m 12,9 km/h (3 Bft) 95,65 %
31.03.2022 10:44 6,1 C 6,1 C 2,2 C 94 % 999,3 hPa 0,0 l/m 0 min 0 min 108 W/m 6,4 km/h (2 Bft) 97,87 %
31.03.2022 10:46 6,1 C 6,1 C 2,2 C 95 % 999,3 hPa 0,0 l/m 0 min 2 min 118 W/m 12,9 km/h (3 Bft) 95,74 %
31.03.2022 10:48 6,1 C 6,1 C 2,2 C 95 % 999,4 hPa 0,0 l/m 0 min 2 min 120 W/m 9,7 km/h (2 Bft) 95,74 %
31.03.2022 10:50 6,1 C 6,1 C 2,2 C 95 % 999,3 hPa 0,0 l/m 0 min 2 min 124 W/m 9,7 km/h (2 Bft) 93,62 %
31.03.2022 10:52 6,1 C 6,1 C 2,2 C 95 % 999,3 hPa 0,0 l/m 0 min 0 min 124 W/m 9,7 km/h (2 Bft) 93,48 %
31.03.2022 10:54 6,1 C 6,1 C 2,2 C 95 % 999,3 hPa 0,0 l/m 0 min 0 min 110 W/m 9,7 km/h (2 Bft) 95,74 %
31.03.2022 10:56 6,1 C 6,1 C 2,8 C 95 % 999,4 hPa 0,0 l/m 0 min 0 min 106 W/m 6,4 km/h (2 Bft) 95,74 %
31.03.2022 10:58 6,2 C 6,1 C 2,2 C 95 % 999,4 hPa 0,0 l/m 0 min 0 min 100 W/m 6,4 km/h (2 Bft) 95,74 %
31.03.2022 11:00 6,2 C 6,1 C 2,8 C 95 % 999,4 hPa 0,0 l/m 0 min 0 min 101 W/m 9,7 km/h (2 Bft) 91,49 %
31.03.2022 11:02 6,2 C 6,1 C 2,2 C 95 % 999,3 hPa 0,0 l/m 0 min 0 min 102 W/m 3,2 km/h (1 Bft) 91,49 %
31.03.2022 11:04 6,2 C 6,1 C 2,2 C 95 % 999,3 hPa 0,0 l/m 0 min 0 min 101 W/m 12,9 km/h (3 Bft) 95,65 %
31.03.2022 11:06 6,2 C 6,1 C 2,2 C 95 % 999,3 hPa 0,0 l/m 0 min 0 min 101 W/m 9,7 km/h (2 Bft) 95,74 %
31.03.2022 11:08 6,2 C 6,1 C 2,2 C 95 % 999,3 hPa 0,0 l/m 0 min 0 min 102 W/m 6,4 km/h (2 Bft) 95,74 %
31.03.2022 11:10 6,2 C 6,1 C 2,8 C 95 % 999,3 hPa 0,0 l/m 0 min 0 min 101 W/m 9,7 km/h (2 Bft) 93,62 %
31.03.2022 11:12 6,2 C 6,1 C 2,2 C 95 % 999,4 hPa 0,0 l/m 0 min 0 min 95 W/m 6,4 km/h (2 Bft) 95,74 %
31.03.2022 11:14 6,2 C 6,1 C 2,2 C 95 % 999,4 hPa 0,0 l/m 0 min 0 min 88 W/m 9,7 km/h (2 Bft) 95,74 %
31.03.2022 11:16 6,2 C 6,1 C 2,2 C 95 % 999,4 hPa 0,0 l/m 0 min 0 min 80 W/m 9,7 km/h (2 Bft) 95,65 %
31.03.2022 11:18 6,2 C 6,1 C 2,2 C 95 % 999,4 hPa 0,0 l/m 0 min 0 min 77 W/m 9,7 km/h (2 Bft) 93,62 %
31.03.2022 11:20 6,2 C 6,1 C 2,2 C 95 % 999,4 hPa 0,0 l/m 0 min 0 min 76 W/m 6,4 km/h (2 Bft) 95,74 %
31.03.2022 11:22 6,2 C 6,1 C 2,8 C 95 % 999,4 hPa 0,0 l/m 0 min 0 min 77 W/m 9,7 km/h (2 Bft) 93,62 %
31.03.2022 11:24 6,2 C 6,1 C 2,8 C 95 % 999,5 hPa 0,0 l/m 0 min 0 min 77 W/m 9,7 km/h (2 Bft) 97,87 %
31.03.2022 11:26 6,2 C 6,1 C 2,8 C 95 % 999,4 hPa 0,0 l/m 0 min 0 min 77 W/m 9,7 km/h (2 Bft) 97,87 %
31.03.2022 11:28 6,2 C 6,1 C 2,2 C 95 % 999,4 hPa 0,0 l/m 0 min 0 min 77 W/m 9,7 km/h (2 Bft) 97,83 %
31.03.2022 11:30 6,2 C 6,1 C 2,2 C 95 % 999,4 hPa 0,0 l/m 0 min 0 min 80 W/m 6,4 km/h (2 Bft) 100,00 %
31.03.2022 11:32 6,2 C 6,1 C 2,2 C 95 % 999,4 hPa 0,0 l/m 0 min 0 min 84 W/m 6,4 km/h (2 Bft) 100,00 %
31.03.2022 11:34 6,2 C 6,1 C 2,2 C 95 % 999,5 hPa 0,0 l/m 0 min 0 min 86 W/m 12,9 km/h (3 Bft) 100,00 %
31.03.2022 11:36 6,2 C 6,1 C 2,2 C 95 % 999,4 hPa 0,0 l/m 0 min 0 min 81 W/m 3,2 km/h (1 Bft) 100,00 %
31.03.2022 11:38 6,2 C 6,1 C 2,2 C 95 % 999,4 hPa 0,0 l/m 0 min 0 min 72 W/m 6,4 km/h (2 Bft) 100,00 %
31.03.2022 11:40 6,1 C 6,1 C 2,2 C 95 % 999,4 hPa 0,0 l/m 0 min 0 min 66 W/m 9,7 km/h (2 Bft) 100,00 %
31.03.2022 11:42 6,1 C 6,1 C 2,2 C 95 % 999,4 hPa 0,0 l/m 0 min 0 min 66 W/m 16,1 km/h (3 Bft) 100,00 %
31.03.2022 11:44 6,1 C 6,1 C 2,2 C 95 % 999,4 hPa 0,0 l/m 0 min 0 min 69 W/m 12,9 km/h (3 Bft) 100,00 %
31.03.2022 11:46 6,1 C 6,1 C 2,2 C 95 % 999,4 hPa 0,0 l/m 0 min 0 min 66 W/m 6,4 km/h (2 Bft) 100,00 %
31.03.2022 11:48 6,1 C 6,1 C 2,2 C 95 % 999,4 hPa 0,0 l/m 0 min 2 min 72 W/m 9,7 km/h (2 Bft) 100,00 %
31.03.2022 11:50 6,1 C 6,1 C 2,2 C 95 % 999,4 hPa 0,0 l/m 0 min 0 min 74 W/m 9,7 km/h (2 Bft) 100,00 %
31.03.2022 11:52 6,1 C 6,1 C 2,8 C 95 % 999,4 hPa 0,0 l/m 0 min 2 min 75 W/m 9,7 km/h (2 Bft) 65,96 %
31.03.2022 11:54 6,1 C 6,1 C 2,2 C 95 % 999,4 hPa 0,0 l/m 0 min 2 min 77 W/m 9,7 km/h (2 Bft) 91,11 %
31.03.2022 11:56 6,1 C 6,1 C 2,8 C 95 % 999,4 hPa 0,0 l/m 0 min 0 min 78 W/m 16,1 km/h (3 Bft) 100,00 %
31.03.2022 11:58 6,1 C 6,1 C 2,2 C 95 % 999,4 hPa 0,0 l/m 0 min 0 min 76 W/m 16,1 km/h (3 Bft) 100,00 %
31.03.2022 12:00 6,1 C 6,1 C 2,2 C 95 % 999,4 hPa 0,0 l/m 0 min 2 min 72 W/m 12,9 km/h (3 Bft) 97,87 %
31.03.2022 12:02 6,1 C 6,1 C 2,2 C 95 % 999,4 hPa 0,0 l/m 0 min 0 min 71 W/m 12,9 km/h (3 Bft) 100,00 %
31.03.2022 12:04 6,1 C 6,1 C 2,2 C 95 % 999,4 hPa 0,0 l/m 0 min 0 min 69 W/m 6,4 km/h (2 Bft) 100,00 %
31.03.2022 12:08 6,0 C 5,6 C 2,2 C 94 % 999,4 hPa 0,0 l/m 0 min 0 min 64 W/m 16,1 km/h (3 Bft) 98,94 %
31.03.2022 12:10 6,0 C 5,6 C 2,2 C 94 % 999,4 hPa 0,0 l/m 0 min 0 min 62 W/m 16,1 km/h (3 Bft) 100,00 %
31.03.2022 12:12 6,0 C 5,6 C 2,2 C 94 % 999,4 hPa 0,0 l/m 0 min 2 min 61 W/m 16,1 km/h (3 Bft) 100,00 %
31.03.2022 12:14 5,9 C 5,6 C 2,2 C 94 % 999,4 hPa 0,0 l/m 0 min 0 min 58 W/m 12,9 km/h (3 Bft) 100,00 %
31.03.2022 12:16 5,9 C 5,6 C 2,2 C 94 % 999,4 hPa 0,0 l/m 0 min 0 min 59 W/m 9,7 km/h (2 Bft) 95,74 %
31.03.2022 12:18 5,9 C 5,6 C 2,2 C 94 % 999,4 hPa 0,0 l/m 0 min 2 min 55 W/m 12,9 km/h (3 Bft) 100,00 %
31.03.2022 12:20 5,9 C 5,6 C 2,2 C 94 % 999,4 hPa 0,0 l/m 0 min 0 min 48 W/m 6,4 km/h (2 Bft) 100,00 %
31.03.2022 12:22 5,9 C 5,6 C 2,2 C 94 % 999,4 hPa 0,0 l/m 0 min 2 min 44 W/m 9,7 km/h (2 Bft) 100,00 %
31.03.2022 12:24 5,9 C 5,6 C 2,2 C 94 % 999,4 hPa 0,0 l/m 0 min 2 min 45 W/m 3,2 km/h (1 Bft) 100,00 %
31.03.2022 12:26 5,9 C 5,6 C 2,2 C 94 % 999,4 hPa 0,0 l/m 0 min 2 min 51 W/m 9,7 km/h (2 Bft) 97,83 %
31.03.2022 12:28 5,9 C 5,6 C 2,2 C 94 % 999,4 hPa 0,0 l/m 0 min 0 min 56 W/m 9,7 km/h (2 Bft) 100,00 %
31.03.2022 12:30 5,9 C 5,6 C 2,2 C 94 % 999,4 hPa 0,0 l/m 0 min 0 min 62 W/m 12,9 km/h (3 Bft) 100,00 %
31.03.2022 12:32 5,9 C 5,6 C 2,2 C 94 % 999,4 hPa 0,0 l/m 0 min 2 min 63 W/m 6,4 km/h (2 Bft) 100,00 %
31.03.2022 12:34 5,9 C 5,6 C 2,2 C 94 % 999,4 hPa 0,0 l/m 0 min 2 min 57 W/m 6,4 km/h (2 Bft) 100,00 %
31.03.2022 12:36 5,9 C 5,6 C 2,2 C 94 % 999,4 hPa 0,0 l/m 0 min 2 min 60 W/m 16,1 km/h (3 Bft) 97,87 %
31.03.2022 12:38 5,8 C 5,6 C 2,2 C 94 % 999,4 hPa 0,0 l/m 0 min 2 min 64 W/m 9,7 km/h (2 Bft) 93,48 %
31.03.2022 12:40 5,8 C 5,6 C 2,2 C 95 % 999,4 hPa 0,0 l/m 0 min 2 min 63 W/m 12,9 km/h (3 Bft) 97,87 %
31.03.2022 12:42 5,8 C 5,6 C 2,2 C 95 % 999,3 hPa 0,0 l/m 0 min 2 min 64 W/m 12,9 km/h (3 Bft) 97,87 %
31.03.2022 12:44 5,8 C 5,6 C 2,2 C 95 % 999,4 hPa 0,0 l/m 0 min 2 min 55 W/m 12,9 km/h (3 Bft) 97,87 %
31.03.2022 12:46 5,8 C 5,6 C 2,2 C 95 % 999,3 hPa 0,0 l/m 0 min 2 min 52 W/m 16,1 km/h (3 Bft) 97,87 %
31.03.2022 12:48 5,8 C 5,6 C 2,2 C 95 % 999,3 hPa 0,0 l/m 0 min 0 min 48 W/m 9,7 km/h (2 Bft) 97,83 %
31.03.2022 12:50 5,7 C 5,6 C 2,2 C 94 % 999,4 hPa 0,0 l/m 0 min 0 min 48 W/m 6,4 km/h (2 Bft) 95,74 %
31.03.2022 12:52 5,7 C 5,6 C 2,2 C 95 % 999,3 hPa 0,0 l/m 0 min 0 min 47 W/m 6,4 km/h (2 Bft) 97,87 %
31.03.2022 12:54 5,7 C 5,6 C 2,2 C 95 % 999,3 hPa 0,0 l/m 0 min 0 min 41 W/m 16,1 km/h (3 Bft) 97,87 %
31.03.2022 12:56 5,7 C 5,6 C 2,2 C 95 % 999,3 hPa 0,0 l/m 0 min 0 min 39 W/m 12,9 km/h (3 Bft) 97,87 %
31.03.2022 12:58 5,7 C 5,6 C 1,7 C 94 % 999,3 hPa 0,0 l/m 0 min 2 min 36 W/m 19,3 km/h (3 Bft) 97,87 %
31.03.2022 13:00 5,7 C 5,6 C 2,2 C 94 % 999,3 hPa 0,0 l/m 0 min 0 min 34 W/m 19,3 km/h (3 Bft) 97,83 %
31.03.2022 13:02 5,6 C 5,0 C 2,2 C 94 % 999,3 hPa 0,0 l/m 0 min 0 min 35 W/m 12,9 km/h (3 Bft) 97,87 %
31.03.2022 13:04 5,6 C 5,0 C 2,2 C 94 % 999,3 hPa 0,0 l/m 0 min 0 min 36 W/m 16,1 km/h (3 Bft) 100,00 %
31.03.2022 13:06 5,6 C 5,0 C 2,2 C 94 % 999,3 hPa 0,0 l/m 0 min 0 min 32 W/m 12,9 km/h (3 Bft) 97,87 %
31.03.2022 13:08 5,6 C 5,0 C 1,7 C 94 % 999,3 hPa 0,0 l/m 0 min 0 min 30 W/m 16,1 km/h (3 Bft) 100,00 %
31.03.2022 13:10 5,6 C 5,0 C 1,7 C 94 % 999,3 hPa 0,0 l/m 0 min 0 min 32 W/m 16,1 km/h (3 Bft) 97,87 %
31.03.2022 13:12 5,5 C 5,0 C 1,7 C 95 % 999,3 hPa 0,0 l/m 0 min 0 min 36 W/m 16,1 km/h (3 Bft) 97,83 %
31.03.2022 13:14 5,4 C 5,0 C 1,7 C 95 % 999,3 hPa 0,0 l/m 0 min 0 min 40 W/m 16,1 km/h (3 Bft) 97,87 %
31.03.2022 13:16 5,4 C 5,0 C 1,7 C 95 % 999,3 hPa 0,0 l/m 0 min 0 min 44 W/m 19,3 km/h (3 Bft) 97,87 %
31.03.2022 13:18 5,3 C 5,0 C 1,7 C 95 % 999,3 hPa 0,0 l/m 0 min 0 min 42 W/m 12,9 km/h (3 Bft) 95,74 %
31.03.2022 13:20 5,3 C 5,0 C 1,7 C 94 % 999,3 hPa 0,0 l/m 0 min 0 min 42 W/m 12,9 km/h (3 Bft) 95,74 %
31.03.2022 13:22 5,3 C 5,0 C 1,7 C 94 % 999,3 hPa 0,0 l/m 0 min 0 min 40 W/m 16,1 km/h (3 Bft) 95,74 %
31.03.2022 13:24 5,3 C 5,0 C 1,7 C 94 % 999,3 hPa 0,0 l/m 0 min 0 min 39 W/m 16,1 km/h (3 Bft) 95,65 %
31.03.2022 13:26 5,2 C 5,0 C 1,7 C 95 % 999,3 hPa 0,0 l/m 0 min 0 min 36 W/m 6,4 km/h (2 Bft) 95,74 %
31.03.2022 13:28 5,2 C 5,0 C 1,7 C 95 % 999,3 hPa 0,0 l/m 0 min 0 min 34 W/m 9,7 km/h (2 Bft) 97,87 %
31.03.2022 13:30 5,2 C 5,0 C 1,7 C 95 % 999,2 hPa 0,0 l/m 0 min 0 min 38 W/m 22,5 km/h (4 Bft) 95,74 %
31.03.2022 13:32 5,2 C 5,0 C 1,7 C 95 % 999,2 hPa 0,0 l/m 0 min 0 min 38 W/m 6,4 km/h (2 Bft) 93,62 %
31.03.2022 13:34 5,2 C 5,0 C 1,7 C 95 % 999,2 hPa 0,0 l/m 0 min 0 min 36 W/m 12,9 km/h (3 Bft) 95,74 %
31.03.2022 13:36 5,2 C 5,0 C 1,7 C 95 % 999,2 hPa 0,0 l/m 0 min 0 min 34 W/m 12,9 km/h (3 Bft) 93,48 %
31.03.2022 13:38 5,2 C 5,0 C 1,7 C 95 % 999,2 hPa 0,0 l/m 0 min 0 min 35 W/m 9,7 km/h (2 Bft) 95,74 %
31.03.2022 13:40 5,1 C 5,0 C 1,7 C 95 % 999,2 hPa 0,0 l/m 0 min 0 min 39 W/m 9,7 km/h (2 Bft) 95,74 %
31.03.2022 13:42 5,1 C 5,0 C 1,7 C 95 % 999,2 hPa 0,0 l/m 0 min 0 min 40 W/m 12,9 km/h (3 Bft) 91,49 %
31.03.2022 13:44 5,1 C 5,0 C 1,7 C 95 % 999,2 hPa 0,0 l/m 0 min 0 min 34 W/m 16,1 km/h (3 Bft) 95,74 %
31.03.2022 13:46 5,1 C 5,0 C 1,7 C 95 % 999,2 hPa 0,0 l/m 0 min 0 min 32 W/m 16,1 km/h (3 Bft) 95,65 %
31.03.2022 13:48 5,1 C 4,4 C 1,7 C 95 % 999,2 hPa 0,0 l/m 0 min 0 min 32 W/m 22,5 km/h (4 Bft) 93,62 %
31.03.2022 13:50 5,0 C 4,4 C 1,7 C 95 % 999,2 hPa 0,0 l/m 0 min 0 min 33 W/m 16,1 km/h (3 Bft) 93,62 %
31.03.2022 13:52 5,0 C 4,4 C 1,7 C 95 % 999,2 hPa 0,0 l/m 0 min 0 min 35 W/m 12,9 km/h (3 Bft) 95,74 %
31.03.2022 13:54 5,0 C 4,4 C 1,7 C 95 % 999,2 hPa 0,0 l/m 0 min 0 min 36 W/m 9,7 km/h (2 Bft) 95,74 %
31.03.2022 13:56 4,9 C 4,4 C 1,7 C 95 % 999,1 hPa 0,0 l/m 0 min 0 min 32 W/m 16,1 km/h (3 Bft) 95,74 %
31.03.2022 13:58 5,0 C 4,4 C 1,7 C 95 % 999,1 hPa 0,0 l/m 0 min 0 min 29 W/m 12,9 km/h (3 Bft) 97,83 %
31.03.2022 14:00 4,9 C 4,4 C 1,7 C 95 % 999,1 hPa 0,0 l/m 0 min 0 min 35 W/m 16,1 km/h (3 Bft) 97,87 %
31.03.2022 14:02 4,9 C 4,4 C 1,7 C 95 % 999,1 hPa 0,0 l/m 0 min 0 min 39 W/m 6,4 km/h (2 Bft) 95,74 %
31.03.2022 14:04 4,9 C 4,4 C 1,7 C 95 % 999,2 hPa 0,0 l/m 0 min 0 min 40 W/m 9,7 km/h (2 Bft) 97,87 %
31.03.2022 14:06 4,9 C 4,4 C 1,7 C 95 % 999,2 hPa 0,0 l/m 0 min 0 min 44 W/m 12,9 km/h (3 Bft) 95,74 %
31.03.2022 14:08 4,9 C 4,4 C 1,7 C 95 % 999,1 hPa 0,0 l/m 0 min 0 min 42 W/m 12,9 km/h (3 Bft) 97,87 %
31.03.2022 14:10 4,9 C 4,4 C 1,7 C 95 % 999,1 hPa 0,0 l/m 0 min 0 min 42 W/m 6,4 km/h (2 Bft) 43,24 %
31.03.2022 14:12 4,9 C 4,4 C 1,7 C 95 % 999,2 hPa 0,0 l/m 0 min 0 min 51 W/m 12,9 km/h (3 Bft) 97,87 %
31.03.2022 14:14 4,9 C 4,4 C 1,7 C 95 % 999,1 hPa 0,0 l/m 0 min 2 min 49 W/m 12,9 km/h (3 Bft) 97,87 %
31.03.2022 14:16 4,8 C 4,4 C 1,7 C 95 % 999,1 hPa 0,0 l/m 0 min 0 min 47 W/m 9,7 km/h (2 Bft) 95,74 %
31.03.2022 14:18 4,8 C 4,4 C 1,7 C 95 % 999,1 hPa 0,0 l/m 0 min 0 min 47 W/m 12,9 km/h (3 Bft) 95,74 %
31.03.2022 14:20 4,8 C 4,4 C 1,7 C 95 % 999,1 hPa 0,0 l/m 0 min 0 min 51 W/m 12,9 km/h (3 Bft) 93,62 %
31.03.2022 14:22 4,8 C 4,4 C 1,7 C 95 % 999,1 hPa 0,0 l/m 0 min 2 min 48 W/m 9,7 km/h (2 Bft) 93,48 %
31.03.2022 14:24 4,8 C 4,4 C 1,7 C 95 % 999,2 hPa 0,0 l/m 0 min 2 min 47 W/m 12,9 km/h (3 Bft) 97,87 %
31.03.2022 14:26 4,8 C 4,4 C 1,7 C 95 % 999,1 hPa 0,0 l/m 0 min 2 min 48 W/m 9,7 km/h (2 Bft) 95,74 %
31.03.2022 14:28 4,8 C 4,4 C 1,7 C 95 % 999,1 hPa 0,2 l/m 0 min 2 min 52 W/m 16,1 km/h (3 Bft) 93,62 %
31.03.2022 14:30 4,8 C 4,4 C 1,7 C 95 % 999,1 hPa 0,0 l/m 0 min 2 min 53 W/m 9,7 km/h (2 Bft) 95,74 %
31.03.2022 14:32 4,8 C 4,4 C 1,7 C 95 % 999,2 hPa 0,0 l/m 0 min 2 min 52 W/m 16,1 km/h (3 Bft) 97,87 %
31.03.2022 14:34 4,8 C 4,4 C 1,7 C 95 % 999,1 hPa 0,0 l/m 0 min 2 min 56 W/m 12,9 km/h (3 Bft) 95,65 %
31.03.2022 14:36 4,8 C 4,4 C 1,7 C 95 % 999,1 hPa 0,0 l/m 0 min 2 min 64 W/m 6,4 km/h (2 Bft) 95,74 %
31.03.2022 14:38 4,8 C 4,4 C 1,7 C 95 % 999,1 hPa 0,0 l/m 0 min 2 min 66 W/m 16,1 km/h (3 Bft) 95,74 %
31.03.2022 14:40 4,8 C 4,4 C 1,7 C 95 % 999,1 hPa 0,2 l/m 0 min 2 min 66 W/m 12,9 km/h (3 Bft) 97,87 %
31.03.2022 14:42 4,8 C 4,4 C 1,7 C 95 % 999,1 hPa 0,0 l/m 0 min 2 min 65 W/m 12,9 km/h (3 Bft) 97,87 %
31.03.2022 14:44 4,8 C 4,4 C 1,1 C 95 % 999,1 hPa 0,0 l/m 0 min 2 min 66 W/m 16,1 km/h (3 Bft) 95,65 %
31.03.2022 14:46 4,8 C 4,4 C 1,1 C 95 % 999,1 hPa 0,0 l/m 0 min 2 min 66 W/m 16,1 km/h (3 Bft) 97,87 %
31.03.2022 14:48 4,8 C 4,4 C 1,1 C 95 % 999,2 hPa 0,0 l/m 0 min 2 min 67 W/m 16,1 km/h (3 Bft) 97,87 %
31.03.2022 14:50 4,7 C 4,4 C 1,1 C 95 % 999,1 hPa 0,0 l/m 0 min 2 min 71 W/m 9,7 km/h (2 Bft) 100,00 %
31.03.2022 14:52 4,8 C 4,4 C 1,1 C 95 % 999,2 hPa 0,0 l/m 0 min 2 min 72 W/m 6,4 km/h (2 Bft) 100,00 %
31.03.2022 14:54 4,8 C 4,4 C 1,1 C 95 % 999,2 hPa 0,0 l/m 0 min 2 min 76 W/m 16,1 km/h (3 Bft) 97,87 %
31.03.2022 14:56 4,8 C 4,4 C 1,1 C 96 % 999,2 hPa 0,2 l/m 0 min 2 min 77 W/m 12,9 km/h (3 Bft) 97,83 %
31.03.2022 14:58 4,8 C 4,4 C 1,1 C 96 % 999,1 hPa 0,0 l/m 0 min 2 min 77 W/m 19,3 km/h (3 Bft) 100,00 %
31.03.2022 15:00 4,8 C 4,4 C 1,1 C 96 % 999,1 hPa 0,0 l/m 0 min 2 min 84 W/m 19,3 km/h (3 Bft) 97,87 %
31.03.2022 15:02 4,8 C 4,4 C 1,1 C 96 % 999,1 hPa 0,0 l/m 0 min 2 min 85 W/m 9,7 km/h (2 Bft) 100,00 %
31.03.2022 15:04 4,8 C 4,4 C 1,1 C 96 % 999,1 hPa 0,0 l/m 0 min 2 min 69 W/m 9,7 km/h (2 Bft) 97,87 %
31.03.2022 15:06 4,8 C 4,4 C 1,1 C 96 % 999,1 hPa 0,0 l/m 0 min 2 min 63 W/m 9,7 km/h (2 Bft) 100,00 %
31.03.2022 15:08 4,8 C 4,4 C 1,1 C 96 % 999,1 hPa 0,0 l/m 0 min 2 min 62 W/m 9,7 km/h (2 Bft) 100,00 %
31.03.2022 15:10 4,9 C 4,4 C 1,1 C 96 % 999,1 hPa 0,0 l/m 0 min 2 min 59 W/m 12,9 km/h (3 Bft) 100,00 %
31.03.2022 15:12 4,9 C 4,4 C 1,1 C 96 % 999,1 hPa 0,0 l/m 0 min 2 min 54 W/m 9,7 km/h (2 Bft) 95,74 %
31.03.2022 15:14 4,9 C 4,4 C 1,1 C 96 % 999,1 hPa 0,2 l/m 0 min 2 min 52 W/m 9,7 km/h (2 Bft) 89,36 %
31.03.2022 15:16 4,8 C 4,4 C 1,1 C 96 % 999,1 hPa 0,0 l/m 0 min 2 min 57 W/m 12,9 km/h (3 Bft) 66,67 %
31.03.2022 15:18 4,8 C 4,4 C 1,1 C 96 % 999,1 hPa 0,0 l/m 0 min 2 min 63 W/m 12,9 km/h (3 Bft) 100,00 %
31.03.2022 15:20 4,8 C 4,4 C 1,1 C 96 % 999,1 hPa 0,0 l/m 0 min 2 min 63 W/m 16,1 km/h (3 Bft) 100,00 %
31.03.2022 15:22 4,8 C 4,4 C 1,7 C 96 % 999,1 hPa 0,0 l/m 0 min 2 min 68 W/m 16,1 km/h (3 Bft) 97,87 %
31.03.2022 15:24 4,8 C 4,4 C 1,1 C 96 % 999,1 hPa 0,0 l/m 0 min 2 min 74 W/m 16,1 km/h (3 Bft) 100,00 %
31.03.2022 15:26 4,9 C 4,4 C 1,1 C 96 % 999,1 hPa 0,0 l/m 0 min 2 min 74 W/m 12,9 km/h (3 Bft) 95,74 %
31.03.2022 15:28 4,9 C 4,4 C 1,7 C 96 % 999,1 hPa 0,0 l/m 0 min 2 min 80 W/m 6,4 km/h (2 Bft) 100,00 %
31.03.2022 15:30 4,9 C 4,4 C 1,1 C 96 % 999,0 hPa 0,0 l/m 0 min 2 min 87 W/m 6,4 km/h (2 Bft) 100,00 %
31.03.2022 15:32 4,9 C 4,4 C 1,7 C 96 % 999,0 hPa 0,0 l/m 0 min 2 min 86 W/m 12,9 km/h (3 Bft) 97,83 %
31.03.2022 15:34 5,0 C 5,0 C 1,1 C 96 % 999,0 hPa 0,0 l/m 0 min 2 min 83 W/m 16,1 km/h (3 Bft) 97,87 %
31.03.2022 15:36 5,0 C 5,0 C 1,1 C 96 % 999,0 hPa 0,0 l/m 0 min 2 min 71 W/m 12,9 km/h (3 Bft) 100,00 %
31.03.2022 15:38 4,9 C 5,0 C 1,7 C 96 % 999,0 hPa 0,2 l/m 0 min 2 min 63 W/m 12,9 km/h (3 Bft) 100,00 %
31.03.2022 15:40 5,0 C 5,0 C 1,7 C 96 % 999,0 hPa 0,0 l/m 0 min 2 min 67 W/m 16,1 km/h (3 Bft) 100,00 %
31.03.2022 15:42 5,0 C 5,0 C 1,1 C 96 % 999,0 hPa 0,0 l/m 0 min 2 min 75 W/m 12,9 km/h (3 Bft) 95,65 %
31.03.2022 15:44 5,0 C 4,4 C 1,1 C 96 % 999,1 hPa 0,0 l/m 0 min 2 min 74 W/m 12,9 km/h (3 Bft) 100,00 %
31.03.2022 15:46 5,0 C 4,4 C 1,1 C 96 % 999,0 hPa 0,0 l/m 0 min 2 min 71 W/m 16,1 km/h (3 Bft) 100,00 %
31.03.2022 15:48 4,9 C 4,4 C 1,1 C 96 % 999,0 hPa 0,0 l/m 0 min 2 min 90 W/m 12,9 km/h (3 Bft) 100,00 %
31.03.2022 15:50 4,9 C 5,0 C 1,1 C 96 % 999,1 hPa 0,0 l/m 0 min 2 min 97 W/m 12,9 km/h (3 Bft) 97,87 %
31.03.2022 15:52 4,9 C 5,0 C 1,7 C 96 % 999,0 hPa 0,0 l/m 0 min 2 min 86 W/m 12,9 km/h (3 Bft) 95,74 %
31.03.2022 15:54 4,9 C 5,0 C 1,1 C 96 % 999,0 hPa 0,2 l/m 0 min 2 min 84 W/m 9,7 km/h (2 Bft) 97,83 %
31.03.2022 15:56 4,9 C 5,0 C 1,1 C 96 % 999,0 hPa 0,0 l/m 0 min 2 min 81 W/m 16,1 km/h (3 Bft) 97,87 %
31.03.2022 15:58 4,9 C 4,4 C 1,7 C 96 % 999,0 hPa 0,0 l/m 0 min 2 min 80 W/m 9,7 km/h (2 Bft) 97,87 %
31.03.2022 16:00 4,9 C 4,4 C 1,1 C 96 % 999,0 hPa 0,0 l/m 0 min 2 min 87 W/m 16,1 km/h (3 Bft) 97,87 %
31.03.2022 16:02 4,9 C 4,4 C 1,1 C 96 % 998,9 hPa 0,0 l/m 0 min 2 min 95 W/m 12,9 km/h (3 Bft) 95,74 %
31.03.2022 16:04 4,9 C 4,4 C 1,7 C 96 % 998,9 hPa 0,0 l/m 0 min 2 min 120 W/m 16,1 km/h (3 Bft) 93,62 %
31.03.2022 16:06 4,8 C 4,4 C 1,1 C 96 % 998,9 hPa 0,0 l/m 0 min 2 min 116 W/m 16,1 km/h (3 Bft) 95,35 %
31.03.2022 16:08 4,8 C 4,4 C 1,1 C 96 % 999,0 hPa 0,0 l/m 0 min 2 min 119 W/m 12,9 km/h (3 Bft) 95,74 %
31.03.2022 16:10 4,9 C 4,4 C 1,7 C 96 % 998,9 hPa 0,0 l/m 0 min 2 min 108 W/m 22,5 km/h (4 Bft) 95,65 %
31.03.2022 16:12 4,8 C 5,0 C 1,1 C 96 % 998,9 hPa 0,0 l/m 0 min 2 min 114 W/m 16,1 km/h (3 Bft) 95,74 %
31.03.2022 16:14 4,9 C 5,0 C 1,1 C 96 % 998,9 hPa 0,0 l/m 0 min 2 min 100 W/m 16,1 km/h (3 Bft) 95,74 %
31.03.2022 16:16 4,9 C 5,0 C 1,1 C 96 % 998,9 hPa 0,0 l/m 0 min 2 min 86 W/m 9,7 km/h (2 Bft) 95,74 %
31.03.2022 16:18 4,9 C 5,0 C 1,7 C 96 % 998,9 hPa 0,0 l/m 0 min 2 min 75 W/m 12,9 km/h (3 Bft) 95,74 %
31.03.2022 16:20 4,9 C 4,4 C 1,7 C 96 % 998,9 hPa 0,2 l/m 0 min 2 min 74 W/m 12,9 km/h (3 Bft) 78,72 %
31.03.2022 16:22 4,9 C 4,4 C 1,1 C 96 % 998,9 hPa 0,0 l/m 0 min 2 min 78 W/m 12,9 km/h (3 Bft) 64,86 %
31.03.2022 16:24 4,8 C 4,4 C 1,1 C 96 % 998,8 hPa 0,0 l/m 0 min 2 min 83 W/m 12,9 km/h (3 Bft) 95,74 %
31.03.2022 16:26 4,8 C 4,4 C 1,1 C 96 % 998,9 hPa 0,0 l/m 0 min 2 min 91 W/m 16,1 km/h (3 Bft) 94,00 %
31.03.2022 16:28 4,8 C 4,4 C 1,1 C 96 % 998,9 hPa 0,0 l/m 0 min 2 min 97 W/m 9,7 km/h (2 Bft) 95,83 %
31.03.2022 16:30 4,9 C 5,0 C 1,7 C 96 % 998,9 hPa 0,0 l/m 0 min 2 min 84 W/m 12,9 km/h (3 Bft) 95,65 %
31.03.2022 16:32 4,9 C 4,4 C 1,1 C 96 % 998,9 hPa 0,0 l/m 0 min 0 min 73 W/m 12,9 km/h (3 Bft) 91,49 %
31.03.2022 16:34 4,9 C 4,4 C 1,1 C 96 % 998,9 hPa 0,0 l/m 0 min 2 min 88 W/m 19,3 km/h (3 Bft) 95,74 %
31.03.2022 16:36 4,9 C 4,4 C 1,1 C 96 % 998,9 hPa 0,0 l/m 0 min 0 min 91 W/m 12,9 km/h (3 Bft) 97,87 %
31.03.2022 16:38 4,8 C 4,4 C 1,1 C 96 % 998,9 hPa 0,0 l/m 0 min 2 min 89 W/m 9,7 km/h (2 Bft) 100,00 %
31.03.2022 16:40 4,8 C 4,4 C 1,1 C 96 % 998,9 hPa 0,0 l/m 0 min 2 min 78 W/m 12,9 km/h (3 Bft) 100,00 %
31.03.2022 16:42 4,8 C 4,4 C 1,1 C 96 % 998,9 hPa 0,0 l/m 0 min 2 min 77 W/m 12,9 km/h (3 Bft) 97,83 %
31.03.2022 16:44 4,7 C 4,4 C 1,1 C 96 % 998,9 hPa 0,0 l/m 0 min 2 min 87 W/m 22,5 km/h (4 Bft) 97,87 %
31.03.2022 16:46 4,7 C 4,4 C 1,1 C 96 % 998,8 hPa 0,0 l/m 0 min 2 min 103 W/m 12,9 km/h (3 Bft) 97,87 %
31.03.2022 16:48 4,6 C 4,4 C 1,1 C 96 % 998,8 hPa 0,2 l/m 0 min 0 min 113 W/m 12,9 km/h (3 Bft) 100,00 %
31.03.2022 16:50 4,6 C 4,4 C 1,1 C 96 % 998,8 hPa 0,0 l/m 0 min 2 min 112 W/m 16,1 km/h (3 Bft) 97,87 %
31.03.2022 16:52 4,7 C 4,4 C 1,1 C 96 % 998,8 hPa 0,0 l/m 0 min 0 min 119 W/m 16,1 km/h (3 Bft) 97,83 %
31.03.2022 16:54 4,7 C 4,4 C 1,1 C 96 % 998,8 hPa 0,0 l/m 0 min 2 min 113 W/m 12,9 km/h (3 Bft) 97,87 %
31.03.2022 16:56 4,7 C 4,4 C 1,1 C 96 % 998,9 hPa 0,0 l/m 0 min 0 min 95 W/m 16,1 km/h (3 Bft) 97,87 %
31.03.2022 16:58 4,7 C 4,4 C 1,1 C 96 % 998,9 hPa 0,0 l/m 0 min 0 min 72 W/m 16,1 km/h (3 Bft) 97,87 %
31.03.2022 17:00 4,7 C 4,4 C 1,1 C 96 % 998,9 hPa 0,0 l/m 0 min 2 min 64 W/m 12,9 km/h (3 Bft) 95,74 %
31.03.2022 17:02 4,6 C 4,4 C 1,1 C 96 % 998,9 hPa 0,0 l/m 0 min 0 min 67 W/m 12,9 km/h (3 Bft) 97,87 %
31.03.2022 17:04 4,6 C 4,4 C 1,1 C 96 % 999,0 hPa 0,0 l/m 0 min 2 min 54 W/m 12,9 km/h (3 Bft) 97,83 %
31.03.2022 17:06 4,6 C 4,4 C 1,1 C 96 % 998,9 hPa 0,0 l/m 0 min 2 min 44 W/m 12,9 km/h (3 Bft) 97,87 %
31.03.2022 17:08 4,6 C 4,4 C 1,1 C 96 % 998,9 hPa 0,0 l/m 0 min 2 min 47 W/m 9,7 km/h (2 Bft) 97,87 %
31.03.2022 17:10 4,6 C 4,4 C 1,1 C 96 % 998,9 hPa 0,0 l/m 0 min 2 min 46 W/m 9,7 km/h (2 Bft) 97,87 %
31.03.2022 17:12 4,6 C 4,4 C 1,1 C 96 % 998,9 hPa 0,0 l/m 0 min 2 min 41 W/m 9,7 km/h (2 Bft) 97,87 %
31.03.2022 17:14 4,6 C 4,4 C 1,1 C 96 % 998,9 hPa 0,0 l/m 0 min 2 min 43 W/m 16,1 km/h (3 Bft) 97,87 %
31.03.2022 17:16 4,6 C 4,4 C 1,1 C 96 % 998,9 hPa 0,0 l/m 0 min 2 min 47 W/m 19,3 km/h (3 Bft) 97,83 %
31.03.2022 17:18 4,6 C 4,4 C 1,1 C 96 % 999,0 hPa 0,0 l/m 0 min 2 min 50 W/m 16,1 km/h (3 Bft) 95,74 %
31.03.2022 17:20 4,5 C 3,9 C 1,1 C 96 % 998,9 hPa 0,0 l/m 0 min 2 min 54 W/m 9,7 km/h (2 Bft) 97,87 %
31.03.2022 17:22 4,5 C 3,9 C 0,6 C 96 % 999,0 hPa 0,0 l/m 0 min 2 min 51 W/m 19,3 km/h (3 Bft) 97,87 %
31.03.2022 17:24 4,4 C 3,9 C 1,1 C 96 % 999,0 hPa 0,0 l/m 0 min 2 min 46 W/m 19,3 km/h (3 Bft) 97,67 %
31.03.2022 17:26 4,4 C 3,9 C 0,6 C 96 % 999,0 hPa 0,0 l/m 0 min 2 min 37 W/m 12,9 km/h (3 Bft) 98,00 %
31.03.2022 17:28 4,4 C 3,9 C 0,6 C 96 % 999,1 hPa 0,0 l/m 0 min 2 min 34 W/m 16,1 km/h (3 Bft) 97,87 %
31.03.2022 17:30 4,3 C 3,9 C 0,6 C 96 % 999,1 hPa 0,0 l/m 0 min 2 min 34 W/m 16,1 km/h (3 Bft) 97,83 %
31.03.2022 17:32 4,3 C 3,9 C 0,6 C 96 % 999,1 hPa 0,2 l/m 0 min 2 min 30 W/m 9,7 km/h (2 Bft) 97,87 %
31.03.2022 17:34 4,3 C 3,9 C 0,6 C 96 % 999,0 hPa 0,0 l/m 0 min 2 min 26 W/m 16,1 km/h (3 Bft) 95,74 %
31.03.2022 17:36 4,2 C 3,9 C 0,6 C 96 % 999,0 hPa 0,0 l/m 0 min 2 min 27 W/m 16,1 km/h (3 Bft) 93,62 %
31.03.2022 17:38 4,2 C 3,9 C 0,6 C 96 % 999,0 hPa 0,0 l/m 0 min 2 min 26 W/m 16,1 km/h (3 Bft) 97,87 %
31.03.2022 17:40 4,2 C 3,9 C 0,6 C 96 % 999,1 hPa 0,0 l/m 0 min 2 min 24 W/m 12,9 km/h (3 Bft) 97,87 %
31.03.2022 17:42 4,2 C 3,9 C 0,6 C 96 % 999,0 hPa 0,0 l/m 0 min 2 min 27 W/m 12,9 km/h (3 Bft) 97,83 %
31.03.2022 17:44 4,1 C 3,9 C 0,6 C 96 % 999,0 hPa 0,0 l/m 0 min 2 min 26 W/m 16,1 km/h (3 Bft) 97,92 %
31.03.2022 17:46 4,1 C 3,3 C 0,6 C 96 % 999,1 hPa 0,0 l/m 0 min 2 min 26 W/m 25,7 km/h (4 Bft) 95,74 %
31.03.2022 17:48 4,0 C 3,3 C 0,6 C 96 % 999,1 hPa 0,0 l/m 0 min 2 min 24 W/m 12,9 km/h (3 Bft) 97,87 %
31.03.2022 17:50 4,0 C 3,3 C 0,6 C 96 % 999,1 hPa 0,0 l/m 0 min 2 min 21 W/m 9,7 km/h (2 Bft) 97,83 %
31.03.2022 17:52 4,0 C 3,3 C 0,6 C 96 % 999,1 hPa 0,2 l/m 0 min 2 min 19 W/m 19,3 km/h (3 Bft) 95,74 %
31.03.2022 17:54 3,9 C 3,3 C 0,6 C 96 % 999,1 hPa 0,0 l/m 0 min 2 min 18 W/m 12,9 km/h (3 Bft) 97,87 %
31.03.2022 17:56 3,9 C 3,3 C 0,6 C 96 % 999,1 hPa 0,0 l/m 0 min 2 min 18 W/m 12,9 km/h (3 Bft) 97,87 %
31.03.2022 17:58 3,9 C 3,3 C 0,6 C 96 % 999,1 hPa 0,0 l/m 0 min 2 min 18 W/m 9,7 km/h (2 Bft) 93,62 %
31.03.2022 18:00 3,9 C 3,3 C 0,6 C 96 % 999,1 hPa 0,0 l/m 0 min 2 min 19 W/m 12,9 km/h (3 Bft) 97,87 %
31.03.2022 18:02 3,9 C 3,3 C 0,6 C 96 % 999,1 hPa 0,0 l/m 0 min 2 min 18 W/m 16,1 km/h (3 Bft) 95,65 %
31.03.2022 18:04 3,9 C 3,3 C 0,6 C 96 % 999,1 hPa 0,0 l/m 0 min 2 min 17 W/m 12,9 km/h (3 Bft) 97,87 %
31.03.2022 18:08 3,8 C 3,3 C 0,0 C 96 % 999,2 hPa 0,0 l/m 0 min 4 min 17 W/m 12,9 km/h (3 Bft) 97,78 %
31.03.2022 18:10 3,8 C 3,3 C 0,0 C 96 % 999,2 hPa 0,0 l/m 0 min 2 min 16 W/m 19,3 km/h (3 Bft) 96,00 %
31.03.2022 18:12 3,7 C 3,3 C 0,0 C 96 % 999,2 hPa 0,0 l/m 0 min 2 min 15 W/m 16,1 km/h (3 Bft) 97,87 %
31.03.2022 18:14 3,7 C 3,3 C 0,0 C 96 % 999,2 hPa 0,0 l/m 0 min 2 min 18 W/m 16,1 km/h (3 Bft) 97,87 %
31.03.2022 18:16 3,6 C 3,3 C 0,0 C 96 % 999,2 hPa 0,0 l/m 0 min 2 min 19 W/m 12,9 km/h (3 Bft) 97,87 %
31.03.2022 18:18 3,6 C 3,3 C 0,0 C 96 % 999,2 hPa 0,0 l/m 0 min 2 min 19 W/m 16,1 km/h (3 Bft) 97,87 %
31.03.2022 18:20 3,6 C 3,3 C 0,6 C 96 % 999,2 hPa 0,0 l/m 0 min 2 min 18 W/m 12,9 km/h (3 Bft) 100,00 %
31.03.2022 18:22 3,6 C 3,3 C 0,6 C 96 % 999,2 hPa 0,0 l/m 0 min 2 min 18 W/m 16,1 km/h (3 Bft) 97,87 %
31.03.2022 18:24 3,6 C 3,3 C 0,0 C 96 % 999,3 hPa 0,0 l/m 0 min 2 min 17 W/m 16,1 km/h (3 Bft) 100,00 %
31.03.2022 18:26 3,6 C 3,3 C 0,6 C 96 % 999,2 hPa 0,0 l/m 0 min 0 min 14 W/m 9,7 km/h (2 Bft) 100,00 %
31.03.2022 18:28 3,6 C 3,3 C 0,0 C 96 % 999,3 hPa 0,0 l/m 0 min 0 min 12 W/m 9,7 km/h (2 Bft) 97,83 %
31.03.2022 18:30 3,6 C 2,8 C 0,0 C 96 % 999,3 hPa 0,0 l/m 0 min 0 min 11 W/m 6,4 km/h (2 Bft) 100,00 %
31.03.2022 18:32 3,6 C 2,8 C 0,0 C 96 % 999,3 hPa 0,0 l/m 0 min 0 min 11 W/m 9,7 km/h (2 Bft) 100,00 %
31.03.2022 18:34 3,5 C 2,8 C 0,0 C 96 % 999,3 hPa 0,0 l/m 0 min 0 min 11 W/m 12,9 km/h (3 Bft) 100,00 %
31.03.2022 18:36 3,4 C 2,8 C 0,0 C 96 % 999,3 hPa 0,0 l/m 0 min 0 min 11 W/m 16,1 km/h (3 Bft) 97,83 %
31.03.2022 18:38 3,4 C 2,8 C 0,0 C 96 % 999,3 hPa 0,0 l/m 0 min 0 min 11 W/m 16,1 km/h (3 Bft) 97,87 %
31.03.2022 18:40 3,4 C 2,8 C 0,0 C 96 % 999,3 hPa 0,0 l/m 0 min 0 min 11 W/m 9,7 km/h (2 Bft) 97,87 %
31.03.2022 18:42 3,4 C 2,8 C 0,0 C 96 % 999,3 hPa 0,0 l/m 0 min 0 min 11 W/m 12,9 km/h (3 Bft) 97,67 %
31.03.2022 18:44 3,4 C 2,8 C 0,0 C 96 % 999,3 hPa 0,0 l/m 0 min 2 min 11 W/m 12,9 km/h (3 Bft) 97,87 %
31.03.2022 18:46 3,4 C 2,8 C 0,0 C 96 % 999,3 hPa 0,0 l/m 0 min 2 min 12 W/m 16,1 km/h (3 Bft) 97,87 %
31.03.2022 18:48 3,3 C 2,8 C 0,0 C 96 % 999,3 hPa 0,0 l/m 0 min 2 min 12 W/m 9,7 km/h (2 Bft) 93,62 %
31.03.2022 18:50 3,2 C 2,8 C -0,6 C 96 % 999,3 hPa 0,0 l/m 0 min 2 min 11 W/m 12,9 km/h (3 Bft) 97,87 %
31.03.2022 18:52 3,2 C 2,8 C 0,0 C 96 % 999,3 hPa 0,0 l/m 0 min 2 min 11 W/m 6,4 km/h (2 Bft) 95,65 %
31.03.2022 18:54 3,2 C 2,8 C 0,0 C 96 % 999,4 hPa 0,0 l/m 0 min 2 min 9 W/m 6,4 km/h (2 Bft) 98,00 %
31.03.2022 18:56 3,2 C 2,8 C 0,0 C 96 % 999,4 hPa 0,0 l/m 0 min 2 min 11 W/m 12,9 km/h (3 Bft) 95,74 %
31.03.2022 18:58 3,2 C 2,8 C 0,0 C 96 % 999,4 hPa 0,0 l/m 0 min 2 min 11 W/m 9,7 km/h (2 Bft) 97,87 %
31.03.2022 19:00 3,2 C 2,8 C 0,0 C 96 % 999,4 hPa 0,0 l/m 0 min 2 min 11 W/m 12,9 km/h (3 Bft) 97,87 %
31.03.2022 19:02 3,1 C 2,8 C 0,0 C 96 % 999,4 hPa 0,0 l/m 0 min 2 min 11 W/m 12,9 km/h (3 Bft) 97,87 %
31.03.2022 19:04 3,1 C 2,8 C -0,6 C 96 % 999,4 hPa 0,0 l/m 0 min 2 min 9 W/m 9,7 km/h (2 Bft) 95,74 %
31.03.2022 19:06 3,1 C 2,8 C 0,0 C 96 % 999,4 hPa 0,0 l/m 0 min 2 min 9 W/m 12,9 km/h (3 Bft) 95,74 %
31.03.2022 19:08 3,1 C 2,8 C -0,6 C 96 % 999,4 hPa 0,2 l/m 0 min 2 min 7 W/m 16,1 km/h (3 Bft) 97,87 %
31.03.2022 19:10 3,1 C 2,2 C -0,6 C 96 % 999,5 hPa 0,0 l/m 0 min 2 min 7 W/m 9,7 km/h (2 Bft) 97,87 %
31.03.2022 19:12 3,0 C 2,2 C -0,6 C 96 % 999,4 hPa 0,0 l/m 0 min 0 min 6 W/m 12,9 km/h (3 Bft) 97,83 %
31.03.2022 19:14 2,9 C 2,2 C -0,6 C 96 % 999,4 hPa 0,0 l/m 0 min 2 min 6 W/m 12,9 km/h (3 Bft) 97,87 %
31.03.2022 19:16 2,9 C 2,2 C -0,6 C 96 % 999,5 hPa 0,0 l/m 0 min 2 min 5 W/m 9,7 km/h (2 Bft) 95,35 %
31.03.2022 19:18 2,9 C 2,2 C -0,6 C 96 % 999,5 hPa 0,0 l/m 0 min 2 min 4 W/m 9,7 km/h (2 Bft) 95,74 %
31.03.2022 19:20 2,9 C 2,2 C -0,6 C 96 % 999,5 hPa 0,0 l/m 0 min 2 min 0 W/m 12,9 km/h (3 Bft) 97,87 %
31.03.2022 19:22 2,8 C 2,2 C -0,6 C 96 % 999,6 hPa 0,0 l/m 0 min 0 min 0 W/m 9,7 km/h (2 Bft) 100,00 %
31.03.2022 19:24 2,8 C 2,2 C -0,6 C 96 % 999,5 hPa 0,0 l/m 0 min 0 min 0 W/m 16,1 km/h (3 Bft) 100,00 %
31.03.2022 19:26 2,8 C 2,2 C -0,6 C 96 % 999,6 hPa 0,0 l/m 0 min 0 min 0 W/m 12,9 km/h (3 Bft) 97,83 %
31.03.2022 19:28 2,8 C 2,2 C -0,6 C 96 % 999,6 hPa 0,0 l/m 0 min 2 min 0 W/m 9,7 km/h (2 Bft) 100,00 %
31.03.2022 19:30 2,7 C 2,2 C -0,6 C 96 % 999,5 hPa 0,0 l/m 0 min 0 min 0 W/m 9,7 km/h (2 Bft) 95,74 %
31.03.2022 19:32 2,7 C 2,2 C -0,6 C 96 % 999,5 hPa 0,0 l/m 0 min 2 min 0 W/m 12,9 km/h (3 Bft) 98,00 %
31.03.2022 19:34 2,7 C 2,2 C -0,6 C 96 % 999,6 hPa 0,0 l/m 0 min 2 min 0 W/m 12,9 km/h (3 Bft) 97,87 %
31.03.2022 19:36 2,6 C 2,2 C -0,6 C 96 % 999,6 hPa 0,0 l/m 0 min 2 min 0 W/m 9,7 km/h (2 Bft) 97,87 %
31.03.2022 19:38 2,6 C 2,2 C -0,6 C 96 % 999,6 hPa 0,0 l/m 0 min 2 min 0 W/m 9,7 km/h (2 Bft) 91,30 %
31.03.2022 19:40 2,6 C 2,2 C -0,6 C 96 % 999,7 hPa 0,0 l/m 0 min 2 min 0 W/m 6,4 km/h (2 Bft) 95,74 %
31.03.2022 19:43 2,6 C 2,2 C -0,6 C 96 % 999,7 hPa 0,0 l/m 0 min 3 min 0 W/m 9,7 km/h (2 Bft) 97,14 %
31.03.2022 19:44 2,5 C 2,2 C -0,6 C 96 % 999,7 hPa 0,0 l/m 0 min 1 min 0 W/m 9,7 km/h (2 Bft) 96,00 %
31.03.2022 19:46 2,5 C 2,2 C -0,6 C 96 % 999,7 hPa 0,0 l/m 0 min 2 min 0 W/m 9,7 km/h (2 Bft) 97,83 %
31.03.2022 19:48 2,4 C 1,7 C -0,6 C 96 % 999,8 hPa 0,0 l/m 0 min 2 min 0 W/m 9,7 km/h (2 Bft) 95,74 %
31.03.2022 19:50 2,4 C 1,7 C -0,6 C 96 % 999,7 hPa 0,0 l/m 0 min 2 min 0 W/m 9,7 km/h (2 Bft) 97,87 %
31.03.2022 19:52 2,4 C 1,7 C -0,6 C 96 % 999,8 hPa 0,0 l/m 0 min 2 min 0 W/m 9,7 km/h (2 Bft) 97,87 %
31.03.2022 19:54 2,4 C 1,7 C -1,1 C 96 % 999,8 hPa 0,0 l/m 0 min 2 min 0 W/m 12,9 km/h (3 Bft) 95,74 %
31.03.2022 19:56 2,4 C 1,7 C -1,1 C 96 % 999,8 hPa 0,0 l/m 0 min 2 min 0 W/m 16,1 km/h (3 Bft) 97,87 %
31.03.2022 19:58 2,3 C 1,7 C -1,1 C 96 % 999,8 hPa 0,0 l/m 0 min 2 min 0 W/m 9,7 km/h (2 Bft) 100,00 %
31.03.2022 20:00 2,4 C 1,7 C -1,1 C 96 % 999,8 hPa 0,0 l/m 0 min 2 min 0 W/m 9,7 km/h (2 Bft) 100,00 %
31.03.2022 20:02 2,3 C 1,7 C -1,1 C 96 % 999,8 hPa 0,0 l/m 0 min 0 min 0 W/m 19,3 km/h (3 Bft) 100,00 %
31.03.2022 20:04 2,3 C 1,7 C -1,1 C 96 % 999,8 hPa 0,0 l/m 0 min 2 min 0 W/m 6,4 km/h (2 Bft) 100,00 %
31.03.2022 20:06 2,3 C 1,7 C -1,1 C 96 % 999,8 hPa 0,0 l/m 0 min 2 min 0 W/m 12,9 km/h (3 Bft) 100,00 %
31.03.2022 20:08 2,2 C 1,7 C -1,1 C 96 % 999,8 hPa 0,2 l/m 0 min 2 min 0 W/m 9,7 km/h (2 Bft) 100,00 %
31.03.2022 20:10 2,2 C 1,7 C -1,1 C 96 % 999,9 hPa 0,0 l/m 0 min 2 min 0 W/m 16,1 km/h (3 Bft) 100,00 %
31.03.2022 20:12 2,2 C 1,7 C -1,1 C 96 % 999,9 hPa 0,0 l/m 0 min 2 min 0 W/m 9,7 km/h (2 Bft) 100,00 %
31.03.2022 20:14 2,2 C 1,7 C -1,1 C 96 % 999,9 hPa 0,0 l/m 0 min 2 min 0 W/m 6,4 km/h (2 Bft) 56,52 %
31.03.2022 20:16 2,2 C 1,7 C -1,1 C 96 % 1000,0 hPa 0,0 l/m 0 min 2 min 0 W/m 12,9 km/h (3 Bft) 100,00 %
31.03.2022 20:18 2,2 C 1,7 C -1,1 C 96 % 1000,0 hPa 0,0 l/m 0 min 2 min 0 W/m 12,9 km/h (3 Bft) 100,00 %
31.03.2022 20:20 2,1 C 1,7 C -1,1 C 96 % 1000,0 hPa 0,0 l/m 0 min 2 min 0 W/m 19,3 km/h (3 Bft) 100,00 %
31.03.2022 20:22 2,1 C 1,7 C -1,1 C 96 % 1000,1 hPa 0,0 l/m 0 min 2 min 0 W/m 9,7 km/h (2 Bft) 97,83 %
31.03.2022 20:24 2,1 C 1,7 C -1,1 C 96 % 1000,1 hPa 0,0 l/m 0 min 2 min 0 W/m 9,7 km/h (2 Bft) 97,87 %
31.03.2022 20:26 2,1 C 1,1 C -1,1 C 96 % 1000,0 hPa 0,2 l/m 0 min 2 min 0 W/m 12,9 km/h (3 Bft) 97,87 %
31.03.2022 20:28 2,1 C 1,7 C -1,1 C 96 % 1000,1 hPa 0,0 l/m 0 min 2 min 0 W/m 12,9 km/h (3 Bft) 95,74 %
31.03.2022 20:30 2,0 C 1,1 C -1,1 C 96 % 1000,1 hPa 0,0 l/m 0 min 2 min 0 W/m 9,7 km/h (2 Bft) 97,87 %
31.03.2022 20:32 2,0 C 1,7 C -1,1 C 96 % 1000,1 hPa 0,2 l/m 0 min 2 min 0 W/m 9,7 km/h (2 Bft) 97,83 %
31.03.2022 20:34 2,0 C 1,7 C -1,1 C 96 % 1000,1 hPa 0,0 l/m 0 min 2 min 0 W/m 9,7 km/h (2 Bft) 97,87 %
31.03.2022 20:36 2,0 C 1,7 C -1,1 C 96 % 1000,1 hPa 0,0 l/m 0 min 2 min 0 W/m 6,4 km/h (2 Bft) 95,74 %
31.03.2022 20:38 2,0 C 1,1 C -1,1 C 96 % 1000,2 hPa 0,0 l/m 0 min 2 min 0 W/m 12,9 km/h (3 Bft) 97,87 %
31.03.2022 20:40 1,9 C 1,1 C -1,1 C 96 % 1000,2 hPa 0,0 l/m 0 min 2 min 0 W/m 9,7 km/h (2 Bft) 98,15 %
31.03.2022 20:42 1,9 C 1,1 C -1,1 C 96 % 1000,2 hPa 0,0 l/m 0 min 2 min 0 W/m 9,7 km/h (2 Bft) 95,74 %
31.03.2022 20:44 1,9 C 1,1 C -1,1 C 96 % 1000,3 hPa 0,0 l/m 0 min 2 min 0 W/m 9,7 km/h (2 Bft) 97,83 %
31.03.2022 20:46 2,0 C 1,7 C -1,1 C 96 % 1000,3 hPa 0,0 l/m 0 min 2 min 0 W/m 12,9 km/h (3 Bft) 95,74 %
31.03.2022 20:48 1,9 C 1,1 C -1,1 C 96 % 1000,2 hPa 0,2 l/m 0 min 2 min 0 W/m 9,7 km/h (2 Bft) 97,87 %
31.03.2022 20:50 1,9 C 1,1 C -1,1 C 96 % 1000,2 hPa 0,0 l/m 0 min 2 min 0 W/m 9,7 km/h (2 Bft) 97,87 %
31.03.2022 20:52 1,9 C 1,1 C -1,1 C 96 % 1000,3 hPa 0,0 l/m 0 min 2 min 0 W/m 12,9 km/h (3 Bft) 97,87 %
31.03.2022 20:54 1,9 C 1,1 C -1,1 C 96 % 1000,2 hPa 0,0 l/m 0 min 2 min 0 W/m 12,9 km/h (3 Bft) 97,87 %
31.03.2022 20:56 1,9 C 1,1 C -1,1 C 96 % 1000,3 hPa 0,2 l/m 0 min 2 min 0 W/m 9,7 km/h (2 Bft) 95,65 %
31.03.2022 20:58 1,9 C 1,1 C -1,1 C 96 % 1000,3 hPa 0,0 l/m 0 min 2 min 0 W/m 12,9 km/h (3 Bft) 95,74 %
31.03.2022 21:00 1,8 C 1,1 C -1,1 C 96 % 1000,4 hPa 0,0 l/m 0 min 2 min 0 W/m 6,4 km/h (2 Bft) 95,74 %
31.03.2022 21:02 1,8 C 1,1 C -1,1 C 96 % 1000,4 hPa 0,0 l/m 0 min 2 min 0 W/m 12,9 km/h (3 Bft) 97,30 %
31.03.2022 21:04 1,8 C 1,1 C -1,1 C 96 % 1000,4 hPa 0,0 l/m 0 min 2 min 0 W/m 9,7 km/h (2 Bft) 95,74 %
31.03.2022 21:06 1,8 C 1,1 C -1,1 C 96 % 1000,4 hPa 0,0 l/m 0 min 2 min 0 W/m 6,4 km/h (2 Bft) 93,62 %
31.03.2022 21:08 1,8 C 1,1 C -1,7 C 96 % 1000,3 hPa 0,2 l/m 0 min 2 min 0 W/m 6,4 km/h (2 Bft) 97,87 %
31.03.2022 21:10 1,8 C 1,1 C -1,1 C 96 % 1000,4 hPa 0,0 l/m 0 min 2 min 0 W/m 9,7 km/h (2 Bft) 95,65 %
31.03.2022 21:12 1,8 C 1,1 C -1,1 C 96 % 1000,4 hPa 0,0 l/m 0 min 2 min 0 W/m 6,4 km/h (2 Bft) 93,62 %
31.03.2022 21:14 1,8 C 1,1 C -1,1 C 96 % 1000,4 hPa 0,0 l/m 0 min 2 min 0 W/m 9,7 km/h (2 Bft) 93,62 %
31.03.2022 21:16 1,8 C 1,1 C -1,1 C 97 % 1000,4 hPa 0,0 l/m 0 min 2 min 0 W/m 6,4 km/h (2 Bft) 93,62 %
31.03.2022 21:18 1,8 C 1,1 C -1,1 C 97 % 1000,4 hPa 0,0 l/m 0 min 2 min 0 W/m 6,4 km/h (2 Bft) 93,62 %
31.03.2022 21:20 1,8 C 1,1 C -1,1 C 97 % 1000,5 hPa 0,2 l/m 0 min 2 min 0 W/m 6,4 km/h (2 Bft) 93,62 %
31.03.2022 21:22 1,8 C 1,1 C -1,1 C 97 % 1000,4 hPa 0,0 l/m 0 min 2 min 0 W/m 12,9 km/h (3 Bft) 91,30 %
31.03.2022 21:24 1,8 C 1,1 C -1,1 C 97 % 1000,4 hPa 0,0 l/m 0 min 2 min 0 W/m 12,9 km/h (3 Bft) 95,74 %
31.03.2022 21:26 1,8 C 1,1 C -1,7 C 97 % 1000,5 hPa 0,0 l/m 0 min 2 min 0 W/m 12,9 km/h (3 Bft) 95,74 %
31.03.2022 21:28 1,8 C 1,1 C -1,1 C 96 % 1000,5 hPa 0,0 l/m 0 min 2 min 0 W/m 9,7 km/h (2 Bft) 93,62 %
31.03.2022 21:30 1,7 C 1,1 C -1,1 C 96 % 1000,5 hPa 0,0 l/m 0 min 2 min 0 W/m 9,7 km/h (2 Bft) 95,74 %
31.03.2022 21:32 1,7 C 1,1 C -1,1 C 96 % 1000,5 hPa 0,0 l/m 0 min 2 min 0 W/m 12,9 km/h (3 Bft) 95,83 %
31.03.2022 21:34 1,7 C 1,1 C -1,1 C 96 % 1000,5 hPa 0,0 l/m 0 min 2 min 0 W/m 12,9 km/h (3 Bft) 93,48 %
31.03.2022 21:36 1,7 C 1,1 C -1,1 C 96 % 1000,5 hPa 0,0 l/m 0 min 2 min 0 W/m 12,9 km/h (3 Bft) 95,74 %
31.03.2022 21:38 1,7 C 1,1 C -1,1 C 96 % 1000,5 hPa 0,0 l/m 0 min 2 min 0 W/m 9,7 km/h (2 Bft) 91,84 %
31.03.2022 21:40 1,8 C 1,1 C -1,1 C 96 % 1000,5 hPa 0,0 l/m 0 min 2 min 0 W/m 16,1 km/h (3 Bft) 97,87 %
31.03.2022 21:42 1,8 C 1,1 C -1,1 C 96 % 1000,5 hPa 0,0 l/m 0 min 2 min 0 W/m 16,1 km/h (3 Bft) 97,83 %
31.03.2022 21:44 1,8 C 1,1 C -1,1 C 96 % 1000,6 hPa 0,0 l/m 0 min 2 min 0 W/m 9,7 km/h (2 Bft) 97,87 %
31.03.2022 21:46 1,8 C 1,1 C -1,1 C 96 % 1000,5 hPa 0,2 l/m 0 min 2 min 0 W/m 9,7 km/h (2 Bft) 95,74 %
31.03.2022 21:48 1,8 C 1,1 C -1,1 C 96 % 1000,6 hPa 0,0 l/m 0 min 2 min 0 W/m 9,7 km/h (2 Bft) 97,87 %
31.03.2022 21:50 1,8 C 1,1 C -1,1 C 97 % 1000,6 hPa 0,0 l/m 0 min 2 min 0 W/m 12,9 km/h (3 Bft) 97,87 %
31.03.2022 21:52 1,8 C 1,1 C -1,1 C 97 % 1000,6 hPa 0,0 l/m 0 min 2 min 0 W/m 6,4 km/h (2 Bft) 97,87 %
31.03.2022 21:54 1,8 C 1,1 C -1,1 C 97 % 1000,6 hPa 0,0 l/m 0 min 2 min 0 W/m 9,7 km/h (2 Bft) 97,83 %
31.03.2022 21:56 1,8 C 1,1 C -1,1 C 97 % 1000,6 hPa 0,0 l/m 0 min 2 min 0 W/m 9,7 km/h (2 Bft) 97,87 %
31.03.2022 21:58 1,8 C 1,1 C -1,1 C 97 % 1000,5 hPa 0,0 l/m 0 min 2 min 0 W/m 9,7 km/h (2 Bft) 100,00 %
31.03.2022 22:00 1,8 C 1,1 C -1,1 C 97 % 1000,6 hPa 0,0 l/m 0 min 2 min 0 W/m 12,9 km/h (3 Bft) 100,00 %
31.03.2022 22:02 1,8 C 1,1 C -1,1 C 97 % 1000,5 hPa 0,0 l/m 0 min 2 min 0 W/m 9,7 km/h (2 Bft) 95,74 %
31.03.2022 22:04 1,8 C 1,1 C -1,1 C 97 % 1000,5 hPa 0,2 l/m 0 min 2 min 0 W/m 9,7 km/h (2 Bft) 97,87 %
31.03.2022 22:06 1,9 C 1,1 C -1,1 C 97 % 1000,6 hPa 0,0 l/m 0 min 2 min 0 W/m 9,7 km/h (2 Bft) 100,00 %
31.03.2022 22:08 1,9 C 1,1 C -1,1 C 97 % 1000,5 hPa 0,0 l/m 0 min 2 min 0 W/m 6,4 km/h (2 Bft) 100,00 %
31.03.2022 22:10 1,9 C 1,1 C -1,1 C 97 % 1000,5 hPa 0,0 l/m 0 min 2 min 0 W/m 6,4 km/h (2 Bft) 100,00 %
31.03.2022 22:12 1,9 C 1,7 C -1,1 C 97 % 1000,5 hPa 0,0 l/m 0 min 2 min 0 W/m 12,9 km/h (3 Bft) 100,00 %
31.03.2022 22:14 1,9 C 1,1 C -1,1 C 97 % 1000,5 hPa 0,0 l/m 0 min 2 min 0 W/m 6,4 km/h (2 Bft) 97,87 %
31.03.2022 22:16 1,9 C 1,1 C -1,1 C 97 % 1000,5 hPa 0,0 l/m 0 min 2 min 0 W/m 9,7 km/h (2 Bft) 100,00 %
31.03.2022 22:18 1,9 C 1,1 C -1,1 C 97 % 1000,5 hPa 0,0 l/m 0 min 2 min 0 W/m 9,7 km/h (2 Bft) 100,00 %
31.03.2022 22:20 1,9 C 1,1 C -1,1 C 97 % 1000,5 hPa 0,0 l/m 0 min 2 min 0 W/m 16,1 km/h (3 Bft) 100,00 %
31.03.2022 22:22 1,9 C 1,1 C -1,1 C 97 % 1000,5 hPa 0,0 l/m 0 min 2 min 0 W/m 12,9 km/h (3 Bft) 100,00 %
31.03.2022 22:24 1,9 C 1,7 C -1,1 C 97 % 1000,5 hPa 0,0 l/m 0 min 2 min 0 W/m 6,4 km/h (2 Bft) 100,00 %
31.03.2022 22:26 1,9 C 1,7 C -1,1 C 97 % 1000,6 hPa 0,0 l/m 0 min 2 min 0 W/m 3,2 km/h (1 Bft) 100,00 %
31.03.2022 22:28 1,9 C 1,7 C -1,1 C 97 % 1000,6 hPa 0,0 l/m 0 min 2 min 0 W/m 9,7 km/h (2 Bft) 100,00 %
31.03.2022 22:30 1,9 C 1,7 C -1,1 C 97 % 1000,5 hPa 0,0 l/m 0 min 2 min 0 W/m 9,7 km/h (2 Bft) 100,00 %
31.03.2022 22:32 2,0 C 1,7 C -1,1 C 97 % 1000,5 hPa 0,0 l/m 0 min 2 min 0 W/m 9,7 km/h (2 Bft) 97,87 %
31.03.2022 22:34 2,0 C 1,7 C -1,1 C 97 % 1000,5 hPa 0,0 l/m 0 min 2 min 0 W/m 9,7 km/h (2 Bft) 100,00 %
31.03.2022 22:36 2,0 C 1,7 C -1,1 C 97 % 1000,5 hPa 0,2 l/m 0 min 2 min 0 W/m 9,7 km/h (2 Bft) 100,00 %
31.03.2022 22:38 2,0 C 1,7 C -1,1 C 97 % 1000,5 hPa 0,0 l/m 0 min 2 min 0 W/m 12,9 km/h (3 Bft) 100,00 %
31.03.2022 22:40 2,0 C 1,7 C -1,1 C 97 % 1000,5 hPa 0,0 l/m 0 min 2 min 0 W/m 16,1 km/h (3 Bft) 100,00 %
31.03.2022 22:42 2,1 C 1,7 C -1,1 C 97 % 1000,5 hPa 0,0 l/m 0 min 2 min 0 W/m 9,7 km/h (2 Bft) 100,00 %
31.03.2022 22:44 2,1 C 1,7 C -1,1 C 97 % 1000,5 hPa 0,0 l/m 0 min 2 min 0 W/m 3,2 km/h (1 Bft) 54,55 %
31.03.2022 22:46 2,1 C 1,7 C -1,1 C 97 % 1000,5 hPa 0,0 l/m 0 min 0 min 0 W/m 6,4 km/h (2 Bft) 97,14 %
31.03.2022 22:48 2,1 C 1,7 C -1,1 C 97 % 1000,5 hPa 0,0 l/m 0 min 2 min 0 W/m 3,2 km/h (1 Bft) 100,00 %
31.03.2022 22:50 2,1 C 1,7 C -0,6 C 97 % 1000,5 hPa 0,0 l/m 0 min 2 min 0 W/m 3,2 km/h (1 Bft) 100,00 %
31.03.2022 22:52 2,2 C 1,7 C -0,6 C 97 % 1000,5 hPa 0,0 l/m 0 min 2 min 0 W/m 6,4 km/h (2 Bft) 100,00 %
31.03.2022 22:54 2,2 C 1,7 C -0,6 C 97 % 1000,5 hPa 0,0 l/m 0 min 2 min 0 W/m 6,4 km/h (2 Bft) 97,87 %
31.03.2022 22:56 2,2 C 1,7 C -0,6 C 97 % 1000,5 hPa 0,0 l/m 0 min 2 min 0 W/m 6,4 km/h (2 Bft) 95,74 %
31.03.2022 22:58 2,2 C 1,7 C -0,6 C 97 % 1000,5 hPa 0,2 l/m 0 min 2 min 0 W/m 3,2 km/h (1 Bft) 97,87 %
31.03.2022 23:00 2,3 C 1,7 C -0,6 C 97 % 1000,5 hPa 0,0 l/m 0 min 2 min 0 W/m 3,2 km/h (1 Bft) 97,87 %
31.03.2022 23:02 2,3 C 1,7 C -0,6 C 97 % 1000,5 hPa 0,0 l/m 0 min 2 min 0 W/m 3,2 km/h (1 Bft) 95,12 %
31.03.2022 23:04 2,3 C 1,7 C -0,6 C 97 % 1000,5 hPa 0,0 l/m 0 min 2 min 0 W/m 6,4 km/h (2 Bft) 98,00 %
31.03.2022 23:06 2,3 C 2,2 C -0,6 C 97 % 1000,5 hPa 0,0 l/m 0 min 2 min 0 W/m 12,9 km/h (3 Bft) 97,83 %
31.03.2022 23:08 2,4 C 2,2 C -0,6 C 97 % 1000,5 hPa 0,0 l/m 0 min 2 min 0 W/m 6,4 km/h (2 Bft) 96,00 %
31.03.2022 23:10 2,5 C 2,2 C -0,6 C 97 % 1000,5 hPa 0,0 l/m 0 min 2 min 0 W/m 9,7 km/h (2 Bft) 97,87 %
31.03.2022 23:12 2,6 C 2,2 C -0,6 C 97 % 1000,5 hPa 0,0 l/m 0 min 2 min 0 W/m 16,1 km/h (3 Bft) 95,74 %
31.03.2022 23:14 2,6 C 2,2 C -0,6 C 97 % 1000,4 hPa 0,0 l/m 0 min 2 min 0 W/m 16,1 km/h (3 Bft) 97,83 %
31.03.2022 23:16 2,7 C 2,2 C -0,6 C 97 % 1000,4 hPa 0,0 l/m 0 min 2 min 0 W/m 12,9 km/h (3 Bft) 97,87 %
31.03.2022 23:18 2,7 C 2,2 C -0,6 C 97 % 1000,4 hPa 0,0 l/m 0 min 0 min 0 W/m 9,7 km/h (2 Bft) 97,87 %
31.03.2022 23:20 2,7 C 2,2 C -0,6 C 97 % 1000,5 hPa 0,0 l/m 0 min 0 min 0 W/m 12,9 km/h (3 Bft) 97,87 %
31.03.2022 23:22 2,7 C 2,2 C -0,6 C 97 % 1000,4 hPa 0,0 l/m 0 min 0 min 0 W/m 6,4 km/h (2 Bft) 97,56 %
31.03.2022 23:24 2,8 C 2,2 C -0,6 C 97 % 1000,4 hPa 0,0 l/m 0 min 0 min 0 W/m 16,1 km/h (3 Bft) 100,00 %
31.03.2022 23:26 2,8 C 2,2 C -0,6 C 97 % 1000,5 hPa 0,0 l/m 0 min 0 min 0 W/m 16,1 km/h (3 Bft) 100,00 %
31.03.2022 23:28 2,7 C 2,2 C -0,6 C 97 % 1000,4 hPa 0,0 l/m 0 min 0 min 0 W/m 9,7 km/h (2 Bft) 97,87 %
31.03.2022 23:30 2,7 C 2,2 C -0,6 C 97 % 1000,4 hPa 0,0 l/m 0 min 0 min 0 W/m 12,9 km/h (3 Bft) 100,00 %
31.03.2022 23:32 2,8 C 2,2 C -0,6 C 97 % 1000,4 hPa 0,0 l/m 0 min 0 min 0 W/m 12,9 km/h (3 Bft) 93,62 %
31.03.2022 23:34 2,8 C 2,2 C -0,6 C 97 % 1000,4 hPa 0,0 l/m 0 min 2 min 0 W/m 16,1 km/h (3 Bft) 100,00 %
31.03.2022 23:36 2,8 C 2,2 C -0,6 C 97 % 1000,4 hPa 0,0 l/m 0 min 2 min 0 W/m 16,1 km/h (3 Bft) 100,00 %
31.03.2022 23:38 2,8 C 2,2 C -0,6 C 97 % 1000,4 hPa 0,0 l/m 0 min 2 min 0 W/m 12,9 km/h (3 Bft) 100,00 %
31.03.2022 23:40 2,7 C 2,2 C -0,6 C 97 % 1000,4 hPa 0,0 l/m 0 min 2 min 0 W/m 19,3 km/h (3 Bft) 100,00 %
31.03.2022 23:42 2,7 C 2,2 C -0,6 C 97 % 1000,4 hPa 0,0 l/m 0 min 2 min 0 W/m 19,3 km/h (3 Bft) 95,74 %
31.03.2022 23:44 2,7 C 2,2 C -0,6 C 97 % 1000,4 hPa 0,0 l/m 0 min 2 min 0 W/m 12,9 km/h (3 Bft) 100,00 %
31.03.2022 23:46 2,7 C 2,2 C -0,6 C 97 % 1000,4 hPa 0,0 l/m 0 min 2 min 0 W/m 16,1 km/h (3 Bft) 97,87 %
31.03.2022 23:48 2,7 C 2,2 C -0,6 C 97 % 1000,5 hPa 0,0 l/m 0 min 2 min 0 W/m 12,9 km/h (3 Bft) 97,87 %
31.03.2022 23:50 2,7 C 2,2 C -0,6 C 97 % 1000,5 hPa 0,2 l/m 0 min 2 min 0 W/m 25,7 km/h (4 Bft) 93,88 %
31.03.2022 23:52 2,7 C 2,2 C -0,6 C 97 % 1000,5 hPa 0,0 l/m 0 min 2 min 0 W/m 12,9 km/h (3 Bft) 97,87 %
31.03.2022 23:54 2,7 C 2,2 C -0,6 C 97 % 1000,6 hPa 0,0 l/m 0 min 2 min 0 W/m 16,1 km/h (3 Bft) 95,74 %
31.03.2022 23:56 2,7 C 2,2 C -0,6 C 97 % 1000,5 hPa 0,0 l/m 0 min 2 min 0 W/m 38,6 km/h (5 Bft) 93,62 %
31.03.2022 23:58 2,7 C 2,2 C -0,6 C 97 % 1000,6 hPa 0,0 l/m 0 min 2 min 0 W/m 16,1 km/h (3 Bft) 95,74 %
_ Min-Zeit 21:30 20:26 21:08 00:00 16:24 - - - - 07:06 10:38
Minimum _ 1,7 C 1,1 C -1,7 C 79 % 998,8 hPa - - - - 0,0 km/h (0 Bft) 39,47 %
_ Max-Zeit 00:00 00:00 00:00 21:16 00:00 06:36 00:00 06:08 09:54 23:56 00:44
Maximum _ 7,3 C 6,7 C 3,3 C 97 % 1001,9 hPa 0,2 l/m 0 min 4 min 129 W/m 38,6 km/h
NO (5 Bft)
100,00 %
Durchschnitt _ 5,0 C 4,5 C 1,3 C 91 % 999,8 hPa #5,8 l/m #0 min. #13:22 h 56 W/m 9,3 km/h (2 Bft) 96,88 %
© 2022 W. Hausmann